UAE334 OMDB-RPLL
Flight info
| Callsign | UAE334 |
|---|---|
| Flight time | N/A |
| Altitude | 33000 |
| Route | IVURO M428 MUNGA A777 VAXIM L301 RASKI L639 BPL A791 CEA B465 CTG A599 LINSO/K0935S1005 A599 POU B330 TAMOT/N0507F330 B330 BIGEX DCT POVAM DCT NOPER V642 NOMAN A461 AVMUP W16 TADEL TADEL3R |
| Aircraft | B77W/H-SDE1E2E3FGHIJ2J3J4J5M1RWXY/LB1D1 |
Departure
| Time | 2026-04-21 00:10 |
|---|---|
| Airport | Dubai International Airport (OMDB) |
Arrival
| Time | N/A |
|---|---|
| Airport | Ninoy Aquino International Airport (RPLL) |
| Time | Latitude | Longitude | Altitude | Speed | Heading |
|---|---|---|---|---|---|
| 2026-04-20 23:52 | 25.24136 | 55.37562 | 31 ft | 0 kts | 301° |
| 2026-04-21 00:02 | 25.24134 | 55.37566 | 26 ft | 3 kts | 301° |
| 2026-04-21 00:02 | 25.24120 | 55.37591 | 33 ft | 4 kts | 301° |
| 2026-04-21 00:03 | 25.24106 | 55.37615 | 30 ft | 4 kts | 310° |
| 2026-04-21 00:03 | 25.24088 | 55.37633 | 31 ft | 4 kts | 338° |
| 2026-04-21 00:03 | 25.24070 | 55.37637 | 31 ft | 4 kts | 17° |
| 2026-04-21 00:03 | 25.24053 | 55.37629 | 31 ft | 4 kts | 31° |
| 2026-04-21 00:04 | 25.24032 | 55.37614 | 31 ft | 2 kts | 31° |
| 2026-04-21 00:04 | 25.24031 | 55.37614 | 31 ft | 0 kts | 31° |
| 2026-04-21 00:06 | 25.24043 | 55.37622 | 31 ft | 4 kts | 31° |
| 2026-04-21 00:07 | 25.24068 | 55.37638 | 31 ft | 4 kts | 31° |
| 2026-04-21 00:07 | 25.24145 | 55.37689 | 32 ft | 24 kts | 31° |
| 2026-04-21 00:07 | 25.24292 | 55.37789 | 27 ft | 24 kts | 32° |
| 2026-04-21 00:07 | 25.24348 | 55.37830 | 29 ft | 4 kts | 34° |
| 2026-04-21 00:08 | 25.24423 | 55.37886 | 34 ft | 17 kts | 34° |
| 2026-04-21 00:08 | 25.24527 | 55.37965 | 33 ft | 26 kts | 34° |
| 2026-04-21 00:08 | 25.24633 | 55.38043 | 30 ft | 11 kts | 31° |
| 2026-04-21 00:08 | 25.24643 | 55.38049 | 30 ft | 5 kts | 31° |
| 2026-04-21 00:09 | 25.24741 | 55.38097 | 35 ft | 20 kts | 355° |
| 2026-04-21 00:09 | 25.24809 | 55.38026 | 34 ft | 0 kts | 300° |
| 2026-04-21 00:09 | 25.24841 | 55.37964 | 34 ft | 32 kts | 301° |
| 2026-04-21 00:09 | 25.25102 | 55.37493 | 36 ft | 109 kts | 301° |
| 2026-04-21 00:10 | 25.25619 | 55.36562 | 34 ft | 173 kts | 301° |
| 2026-04-21 00:10 | 25.26301 | 55.35336 | 385 ft | 190 kts | 302° |
| 2026-04-21 00:10 | 25.27003 | 55.34093 | 1062 ft | 190 kts | 302° |
| 2026-04-21 00:10 | 25.27699 | 55.32851 | 1724 ft | 191 kts | 302° |
| 2026-04-21 00:11 | 25.28394 | 55.31594 | 2307 ft | 195 kts | 303° |
| 2026-04-21 00:11 | 25.29224 | 55.30321 | 2475 ft | 215 kts | 320° |
| 2026-04-21 00:11 | 25.30584 | 55.29582 | 2878 ft | 225 kts | 347° |
| 2026-04-21 00:11 | 25.32166 | 55.29452 | 3484 ft | 231 kts | 0° |
| 2026-04-21 00:12 | 25.33759 | 55.29498 | 4173 ft | 234 kts | 1° |
| 2026-04-21 00:12 | 25.35396 | 55.29564 | 4897 ft | 237 kts | 2° |
| 2026-04-21 00:12 | 25.37068 | 55.29623 | 5655 ft | 237 kts | 1° |
| 2026-04-21 00:12 | 25.38691 | 55.29698 | 6382 ft | 236 kts | 8° |
| 2026-04-21 00:13 | 25.40219 | 55.30407 | 6860 ft | 249 kts | 36° |
| 2026-04-21 00:13 | 25.41444 | 55.31883 | 7029 ft | 274 kts | 50° |
| 2026-04-21 00:13 | 25.42730 | 55.33663 | 7045 ft | 311 kts | 50° |
| 2026-04-21 00:13 | 25.44164 | 55.35638 | 7058 ft | 352 kts | 50° |
| 2026-04-21 00:14 | 25.45723 | 55.37788 | 7029 ft | 360 kts | 50° |
| 2026-04-21 00:14 | 25.47297 | 55.39948 | 7145 ft | 360 kts | 50° |
| 2026-04-21 00:14 | 25.48871 | 55.42112 | 8233 ft | 366 kts | 50° |
| 2026-04-21 00:14 | 25.50453 | 55.44365 | 9312 ft | 375 kts | 50° |
| 2026-04-21 00:15 | 25.51885 | 55.46792 | 10173 ft | 384 kts | 65° |
| 2026-04-21 00:15 | 25.52452 | 55.49761 | 11082 ft | 397 kts | 90° |
| 2026-04-21 00:15 | 25.51996 | 55.52734 | 12140 ft | 402 kts | 110° |
| 2026-04-21 00:15 | 25.50704 | 55.55481 | 12932 ft | 405 kts | 123° |
| 2026-04-21 00:16 | 25.49156 | 55.58097 | 13009 ft | 408 kts | 124° |
| 2026-04-21 00:16 | 25.47590 | 55.60709 | 13036 ft | 406 kts | 124° |
| 2026-04-21 00:16 | 25.46053 | 55.63335 | 13605 ft | 406 kts | 123° |
| 2026-04-21 00:16 | 25.44529 | 55.65992 | 14596 ft | 412 kts | 123° |
| 2026-04-21 00:17 | 25.43007 | 55.68692 | 15557 ft | 415 kts | 121° |
| 2026-04-21 00:17 | 25.41930 | 55.71678 | 16211 ft | 424 kts | 103° |
| 2026-04-21 00:17 | 25.41365 | 55.74928 | 16978 ft | 436 kts | 102° |
| 2026-04-21 00:17 | 25.40750 | 55.78240 | 17902 ft | 442 kts | 103° |
| 2026-04-21 00:18 | 25.40061 | 55.81563 | 18764 ft | 447 kts | 104° |
| 2026-04-21 00:18 | 25.39330 | 55.84930 | 19535 ft | 453 kts | 105° |
| 2026-04-21 00:18 | 25.38590 | 55.88335 | 20271 ft | 460 kts | 104° |
| 2026-04-21 00:18 | 25.37843 | 55.91803 | 20988 ft | 466 kts | 104° |
| 2026-04-21 00:19 | 25.37093 | 55.95312 | 21682 ft | 472 kts | 104° |
| 2026-04-21 00:19 | 25.36334 | 55.98870 | 22362 ft | 478 kts | 104° |
| 2026-04-21 00:19 | 25.35566 | 56.02470 | 23018 ft | 484 kts | 104° |
| 2026-04-21 00:19 | 25.34788 | 56.06113 | 23600 ft | 490 kts | 104° |
| 2026-04-21 00:20 | 25.34002 | 56.09792 | 24153 ft | 494 kts | 104° |
| 2026-04-21 00:20 | 25.33208 | 56.13495 | 24758 ft | 496 kts | 104° |
| 2026-04-21 00:20 | 25.32361 | 56.17197 | 25339 ft | 497 kts | 108° |
| 2026-04-21 00:20 | 25.31250 | 56.20821 | 25891 ft | 499 kts | 112° |
| 2026-04-21 00:21 | 25.29995 | 56.24403 | 26390 ft | 502 kts | 113° |
| 2026-04-21 00:21 | 25.28717 | 56.28004 | 26862 ft | 505 kts | 112° |
| 2026-04-21 00:21 | 25.27478 | 56.31637 | 27297 ft | 508 kts | 111° |
| 2026-04-21 00:21 | 25.26267 | 56.35318 | 27733 ft | 511 kts | 111° |
| 2026-04-21 00:22 | 25.25065 | 56.39019 | 28156 ft | 513 kts | 111° |
| 2026-04-21 00:22 | 25.23848 | 56.42729 | 28554 ft | 515 kts | 111° |
| 2026-04-21 00:22 | 25.22618 | 56.46457 | 28938 ft | 518 kts | 111° |
| 2026-04-21 00:22 | 25.21396 | 56.50149 | 29262 ft | 520 kts | 111° |
| 2026-04-21 00:23 | 25.20153 | 56.53906 | 29567 ft | 522 kts | 111° |
| 2026-04-21 00:23 | 25.18907 | 56.57671 | 29913 ft | 523 kts | 111° |
| 2026-04-21 00:23 | 25.17617 | 56.61427 | 30274 ft | 522 kts | 113° |
| 2026-04-21 00:23 | 25.16245 | 56.65119 | 30677 ft | 519 kts | 114° |
| 2026-04-21 00:24 | 25.14835 | 56.68779 | 31085 ft | 517 kts | 114° |
| 2026-04-21 00:24 | 25.13416 | 56.72427 | 31455 ft | 516 kts | 114° |
| 2026-04-21 00:24 | 25.12007 | 56.76064 | 31804 ft | 515 kts | 114° |
| 2026-04-21 00:24 | 25.10609 | 56.79703 | 32137 ft | 514 kts | 114° |
| 2026-04-21 00:25 | 25.09225 | 56.83334 | 32484 ft | 513 kts | 114° |
| 2026-04-21 00:25 | 25.07847 | 56.86963 | 32751 ft | 514 kts | 114° |
| 2026-04-21 00:25 | 25.06465 | 56.90612 | 32785 ft | 516 kts | 114° |
| 2026-04-21 00:26 | 25.03707 | 56.97891 | 32795 ft | 512 kts | 114° |
| 2026-04-21 00:26 | 25.00966 | 57.05106 | 32799 ft | 509 kts | 114° |
| 2026-04-21 00:27 | 24.98226 | 57.12299 | 32801 ft | 509 kts | 114° |
| 2026-04-21 00:27 | 24.95479 | 57.19496 | 32800 ft | 509 kts | 114° |
| 2026-04-21 00:28 | 24.92730 | 57.26688 | 32801 ft | 510 kts | 114° |
| 2026-04-21 00:28 | 24.89973 | 57.33888 | 32800 ft | 510 kts | 114° |
| 2026-04-21 00:29 | 24.87209 | 57.41094 | 32801 ft | 511 kts | 114° |
| 2026-04-21 00:29 | 24.84440 | 57.48301 | 32799 ft | 511 kts | 114° |
| 2026-04-21 00:30 | 24.81664 | 57.55514 | 32798 ft | 512 kts | 114° |
| 2026-04-21 00:30 | 24.78887 | 57.62721 | 32798 ft | 511 kts | 114° |
| 2026-04-21 00:31 | 24.76109 | 57.69918 | 32802 ft | 511 kts | 114° |
| 2026-04-21 00:31 | 24.73330 | 57.77115 | 32796 ft | 511 kts | 113° |
| 2026-04-21 00:32 | 24.71303 | 57.83218 | 32804 ft | 511 kts | 109° |
| 2026-04-21 00:32 | 24.69029 | 57.90609 | 32796 ft | 510 kts | 109° |
| 2026-04-21 00:33 | 24.66749 | 57.98000 | 32796 ft | 510 kts | 109° |
| 2026-04-21 00:33 | 24.64443 | 58.05377 | 32798 ft | 510 kts | 109° |
| 2026-04-21 00:34 | 24.62125 | 58.12748 | 32799 ft | 510 kts | 109° |
| 2026-04-21 00:34 | 24.59803 | 58.20118 | 32801 ft | 510 kts | 109° |
| 2026-04-21 00:35 | 24.57479 | 58.27482 | 32799 ft | 510 kts | 109° |
| 2026-04-21 00:35 | 24.55151 | 58.34849 | 32800 ft | 511 kts | 109° |
| 2026-04-21 00:36 | 24.52818 | 58.42218 | 32800 ft | 511 kts | 109° |
| 2026-04-21 00:36 | 24.50496 | 58.49539 | 32801 ft | 511 kts | 109° |
| 2026-04-21 00:37 | 24.48154 | 58.56910 | 32799 ft | 512 kts | 109° |
| 2026-04-21 00:37 | 24.45806 | 58.64284 | 32799 ft | 512 kts | 110° |
| 2026-04-21 00:38 | 24.43454 | 58.71659 | 32799 ft | 512 kts | 110° |
| 2026-04-21 00:38 | 24.40860 | 58.78931 | 32800 ft | 511 kts | 116° |
| 2026-04-21 00:39 | 24.37718 | 58.85931 | 32807 ft | 511 kts | 117° |
| 2026-04-21 00:39 | 24.34550 | 58.92918 | 32798 ft | 512 kts | 117° |
| 2026-04-21 00:40 | 24.31415 | 58.99920 | 32801 ft | 512 kts | 117° |
| 2026-04-21 00:40 | 24.28290 | 59.06939 | 32801 ft | 512 kts | 117° |
| 2026-04-21 00:41 | 24.25164 | 59.13950 | 32803 ft | 512 kts | 117° |
| 2026-04-21 00:41 | 24.22031 | 59.20959 | 32803 ft | 512 kts | 117° |
| 2026-04-21 00:42 | 24.18898 | 59.27957 | 32802 ft | 512 kts | 117° |
| 2026-04-21 00:42 | 24.15763 | 59.34948 | 32803 ft | 511 kts | 117° |
| 2026-04-21 00:43 | 24.12628 | 59.41929 | 32800 ft | 511 kts | 117° |
| 2026-04-21 00:43 | 24.09491 | 59.48908 | 32800 ft | 511 kts | 117° |
| 2026-04-21 00:44 | 24.06349 | 59.55871 | 32804 ft | 510 kts | 117° |
| 2026-04-21 00:44 | 24.03201 | 59.62828 | 32800 ft | 510 kts | 117° |
| 2026-04-21 00:45 | 23.98483 | 59.73238 | 32797 ft | 509 kts | 117° |
| 2026-04-21 00:45 | 23.95338 | 59.80171 | 32800 ft | 508 kts | 117° |
| 2026-04-21 00:46 | 23.92199 | 59.87079 | 32818 ft | 507 kts | 118° |
| 2026-04-21 00:46 | 23.89066 | 59.93965 | 32802 ft | 505 kts | 118° |
| 2026-04-21 00:47 | 23.85936 | 60.00833 | 32799 ft | 504 kts | 118° |
| 2026-04-21 00:47 | 23.82838 | 60.07620 | 32801 ft | 502 kts | 118° |
| 2026-04-21 00:48 | 23.79727 | 60.14427 | 32813 ft | 500 kts | 118° |
| 2026-04-21 00:48 | 23.76620 | 60.21215 | 32822 ft | 499 kts | 118° |
| 2026-04-21 00:49 | 23.73517 | 60.27983 | 32803 ft | 498 kts | 118° |
| 2026-04-21 00:49 | 23.70417 | 60.34737 | 32802 ft | 497 kts | 118° |
| 2026-04-21 00:50 | 23.67321 | 60.41472 | 32805 ft | 497 kts | 118° |
| 2026-04-21 00:50 | 23.64221 | 60.48207 | 32822 ft | 497 kts | 118° |
| 2026-04-21 00:51 | 23.61116 | 60.54941 | 32826 ft | 497 kts | 118° |
| 2026-04-21 00:51 | 23.58008 | 60.61675 | 32808 ft | 498 kts | 118° |
| 2026-04-21 00:52 | 23.54889 | 60.68422 | 32822 ft | 498 kts | 118° |
| 2026-04-21 00:52 | 23.51767 | 60.75166 | 32828 ft | 499 kts | 118° |
| 2026-04-21 00:53 | 23.48639 | 60.81915 | 32827 ft | 499 kts | 118° |
| 2026-04-21 00:53 | 23.45524 | 60.88625 | 32824 ft | 500 kts | 118° |
| 2026-04-21 00:54 | 23.42387 | 60.95374 | 32822 ft | 500 kts | 118° |
| 2026-04-21 00:54 | 23.39247 | 61.02121 | 32832 ft | 500 kts | 118° |
| 2026-04-21 00:55 | 23.36100 | 61.08875 | 32825 ft | 500 kts | 118° |
| 2026-04-21 00:55 | 23.33096 | 61.15689 | 32834 ft | 501 kts | 111° |
| 2026-04-21 00:56 | 23.31258 | 61.22986 | 32837 ft | 502 kts | 100° |
| 2026-04-21 00:56 | 23.30511 | 61.30539 | 32845 ft | 502 kts | 96° |
| 2026-04-21 00:57 | 23.29906 | 61.38099 | 32843 ft | 502 kts | 96° |
| 2026-04-21 00:57 | 23.29267 | 61.45667 | 32835 ft | 502 kts | 96° |
| 2026-04-21 00:58 | 23.28595 | 61.53219 | 32842 ft | 502 kts | 96° |
| 2026-04-21 00:58 | 23.27909 | 61.60770 | 32842 ft | 501 kts | 96° |
| 2026-04-21 00:59 | 23.27222 | 61.68313 | 32840 ft | 501 kts | 96° |
| 2026-04-21 00:59 | 23.26533 | 61.75843 | 32839 ft | 501 kts | 96° |
| 2026-04-21 01:00 | 23.25842 | 61.83376 | 32837 ft | 500 kts | 96° |
| 2026-04-21 01:00 | 23.25148 | 61.90903 | 32841 ft | 500 kts | 96° |
| 2026-04-21 01:01 | 23.24568 | 61.97160 | 32848 ft | 500 kts | 96° |
| 2026-04-21 01:01 | 23.23753 | 62.05904 | 32850 ft | 500 kts | 96° |
| 2026-04-21 01:02 | 23.23048 | 62.13426 | 32848 ft | 500 kts | 96° |
| 2026-04-21 01:02 | 23.22453 | 62.19744 | 32921 ft | 503 kts | 96° |
| 2026-04-21 01:03 | 23.21980 | 62.24750 | 33395 ft | 501 kts | 96° |
| 2026-04-21 01:03 | 23.21624 | 62.28498 | 33848 ft | 497 kts | 96° |
| 2026-04-21 01:03 | 23.21270 | 62.32224 | 34230 ft | 494 kts | 96° |
| 2026-04-21 01:03 | 23.20917 | 62.35931 | 34554 ft | 493 kts | 96° |
| 2026-04-21 01:04 | 23.20563 | 62.39638 | 34763 ft | 494 kts | 96° |
| 2026-04-21 01:04 | 23.20205 | 62.43368 | 34802 ft | 498 kts | 96° |
| 2026-04-21 01:04 | 23.19488 | 62.50835 | 34840 ft | 494 kts | 97° |
| 2026-04-21 01:05 | 23.19011 | 62.55780 | 34847 ft | 490 kts | 97° |
| 2026-04-21 01:05 | 23.18183 | 62.64318 | 34858 ft | 488 kts | 97° |
| 2026-04-21 01:06 | 23.17348 | 62.72880 | 34852 ft | 487 kts | 97° |
| 2026-04-21 01:06 | 23.16628 | 62.80213 | 34852 ft | 488 kts | 97° |
| 2026-04-21 01:07 | 23.15906 | 62.87546 | 34854 ft | 489 kts | 97° |
| 2026-04-21 01:07 | 23.15183 | 62.94848 | 34859 ft | 490 kts | 97° |
| 2026-04-21 01:08 | 23.14446 | 63.02259 | 34863 ft | 490 kts | 97° |
| 2026-04-21 01:08 | 23.13710 | 63.09628 | 34863 ft | 491 kts | 97° |
| 2026-04-21 01:09 | 23.12974 | 63.16955 | 34859 ft | 491 kts | 97° |
| 2026-04-21 01:09 | 23.12231 | 63.24328 | 34857 ft | 491 kts | 97° |
| 2026-04-21 01:10 | 23.11483 | 63.31710 | 34859 ft | 491 kts | 97° |
| 2026-04-21 01:10 | 23.10731 | 63.39087 | 34864 ft | 491 kts | 97° |
| 2026-04-21 01:11 | 23.09977 | 63.46458 | 34864 ft | 491 kts | 97° |
| 2026-04-21 01:11 | 23.09219 | 63.53834 | 34864 ft | 491 kts | 97° |
| 2026-04-21 01:12 | 23.08459 | 63.61196 | 34860 ft | 491 kts | 97° |
| 2026-04-21 01:12 | 23.07695 | 63.68557 | 34861 ft | 490 kts | 97° |
| 2026-04-21 01:13 | 23.06929 | 63.75915 | 34860 ft | 490 kts | 97° |
| 2026-04-21 01:13 | 23.06161 | 63.83260 | 34857 ft | 490 kts | 97° |
| 2026-04-21 01:14 | 23.05397 | 63.90603 | 34861 ft | 489 kts | 97° |
| 2026-04-21 01:14 | 23.04657 | 63.97947 | 34859 ft | 489 kts | 97° |
| 2026-04-21 01:15 | 23.03919 | 64.05281 | 34857 ft | 489 kts | 97° |
| 2026-04-21 01:15 | 23.03175 | 64.12615 | 34864 ft | 489 kts | 97° |
| 2026-04-21 01:16 | 23.02550 | 64.18721 | 34862 ft | 489 kts | 97° |
| 2026-04-21 01:16 | 23.01669 | 64.27296 | 34862 ft | 490 kts | 96° |
| 2026-04-21 01:17 | 23.00911 | 64.34641 | 34868 ft | 490 kts | 97° |
| 2026-04-21 01:17 | 23.00149 | 64.41985 | 34861 ft | 490 kts | 96° |
| 2026-04-21 01:18 | 22.99389 | 64.49281 | 34863 ft | 489 kts | 96° |
| 2026-04-21 01:18 | 22.98621 | 64.56617 | 34863 ft | 489 kts | 96° |
| 2026-04-21 01:19 | 22.97850 | 64.63949 | 34863 ft | 489 kts | 96° |
| 2026-04-21 01:19 | 22.97077 | 64.71275 | 34862 ft | 488 kts | 96° |
| 2026-04-21 01:20 | 22.96301 | 64.78589 | 34862 ft | 488 kts | 96° |
| 2026-04-21 01:20 | 22.95733 | 64.85919 | 34859 ft | 488 kts | 90° |
| 2026-04-21 01:21 | 22.95774 | 64.92030 | 34864 ft | 488 kts | 89° |
| 2026-04-21 01:21 | 22.95871 | 64.99391 | 34867 ft | 488 kts | 89° |
| 2026-04-21 01:22 | 22.95939 | 65.06754 | 34865 ft | 488 kts | 89° |
| 2026-04-21 01:22 | 22.95980 | 65.14120 | 34867 ft | 489 kts | 90° |
| 2026-04-21 01:23 | 22.96010 | 65.21493 | 34865 ft | 489 kts | 90° |
| 2026-04-21 01:23 | 22.96038 | 65.28870 | 34867 ft | 489 kts | 89° |
| 2026-04-21 01:24 | 22.96065 | 65.36251 | 34867 ft | 489 kts | 90° |
| 2026-04-21 01:24 | 22.96088 | 65.43637 | 34866 ft | 489 kts | 89° |
| 2026-04-21 01:25 | 22.96107 | 65.51025 | 34867 ft | 489 kts | 89° |
| 2026-04-21 01:25 | 22.96124 | 65.58406 | 34866 ft | 489 kts | 89° |
| 2026-04-21 01:26 | 22.96136 | 65.65791 | 34868 ft | 489 kts | 89° |
| 2026-04-21 01:26 | 22.96146 | 65.73165 | 34867 ft | 489 kts | 89° |
| 2026-04-21 01:27 | 22.96152 | 65.80539 | 34863 ft | 489 kts | 89° |
| 2026-04-21 01:27 | 22.96154 | 65.87913 | 34864 ft | 488 kts | 89° |
| 2026-04-21 01:28 | 22.96154 | 65.95276 | 34863 ft | 488 kts | 89° |
| 2026-04-21 01:28 | 22.96149 | 66.02642 | 34865 ft | 488 kts | 89° |
| 2026-04-21 01:29 | 22.96142 | 66.09954 | 34863 ft | 488 kts | 89° |
| 2026-04-21 01:29 | 22.96131 | 66.17315 | 34863 ft | 488 kts | 89° |
| 2026-04-21 01:30 | 22.96116 | 66.24672 | 34861 ft | 488 kts | 89° |
| 2026-04-21 01:30 | 22.96099 | 66.32029 | 34865 ft | 488 kts | 89° |
| 2026-04-21 01:31 | 22.96078 | 66.39385 | 34868 ft | 488 kts | 89° |
| 2026-04-21 01:31 | 22.96053 | 66.46748 | 34866 ft | 488 kts | 89° |
| 2026-04-21 01:32 | 22.96025 | 66.54110 | 34863 ft | 488 kts | 89° |
| 2026-04-21 01:32 | 22.95994 | 66.61466 | 34864 ft | 488 kts | 89° |
| 2026-04-21 01:33 | 22.95959 | 66.68834 | 34863 ft | 488 kts | 89° |
| 2026-04-21 01:33 | 22.95921 | 66.76198 | 34863 ft | 488 kts | 89° |
| 2026-04-21 01:34 | 22.95879 | 66.83567 | 34864 ft | 488 kts | 89° |
| 2026-04-21 01:34 | 22.95835 | 66.90939 | 34863 ft | 488 kts | 89° |
| 2026-04-21 01:35 | 22.95792 | 66.98260 | 34863 ft | 488 kts | 88° |
| 2026-04-21 01:35 | 22.95804 | 67.05621 | 34863 ft | 488 kts | 88° |
| 2026-04-21 01:36 | 22.95832 | 67.13037 | 34862 ft | 488 kts | 88° |
| 2026-04-21 01:36 | 22.95850 | 67.20354 | 34867 ft | 488 kts | 88° |
| 2026-04-21 01:37 | 22.95859 | 67.27720 | 34864 ft | 488 kts | 88° |
| 2026-04-21 01:37 | 22.95863 | 67.35082 | 34865 ft | 488 kts | 88° |
| 2026-04-21 01:38 | 22.95864 | 67.42448 | 34867 ft | 488 kts | 88° |
| 2026-04-21 01:38 | 22.95862 | 67.49811 | 34866 ft | 488 kts | 88° |
| 2026-04-21 01:39 | 22.95857 | 67.57177 | 34866 ft | 488 kts | 88° |
| 2026-04-21 01:39 | 22.95848 | 67.64539 | 34865 ft | 488 kts | 88° |
| 2026-04-21 01:40 | 22.95836 | 67.71901 | 34866 ft | 487 kts | 88° |
| 2026-04-21 01:40 | 22.95820 | 67.79246 | 34866 ft | 487 kts | 88° |
| 2026-04-21 01:41 | 22.95802 | 67.86590 | 34868 ft | 486 kts | 88° |
| 2026-04-21 01:41 | 22.95799 | 67.93932 | 34866 ft | 486 kts | 87° |
| 2026-04-21 01:42 | 22.95812 | 68.01253 | 34867 ft | 485 kts | 87° |
| 2026-04-21 01:42 | 22.95819 | 68.08566 | 34866 ft | 484 kts | 87° |
| 2026-04-21 01:43 | 22.95819 | 68.15863 | 34868 ft | 483 kts | 87° |
| 2026-04-21 01:43 | 22.95816 | 68.23142 | 34870 ft | 482 kts | 87° |
| 2026-04-21 01:44 | 22.95810 | 68.30409 | 34870 ft | 481 kts | 87° |
| 2026-04-21 01:44 | 22.95795 | 68.37658 | 34869 ft | 480 kts | 88° |
| 2026-04-21 01:45 | 22.95455 | 68.44902 | 34871 ft | 481 kts | 91° |
| 2026-04-21 01:45 | 22.95002 | 68.52135 | 34869 ft | 480 kts | 91° |
| 2026-04-21 01:46 | 22.94558 | 68.59349 | 34871 ft | 479 kts | 90° |
| 2026-04-21 01:46 | 22.94129 | 68.66565 | 34869 ft | 479 kts | 90° |
| 2026-04-21 01:47 | 22.93705 | 68.73769 | 34871 ft | 478 kts | 90° |
| 2026-04-21 01:47 | 22.93278 | 68.80974 | 34869 ft | 478 kts | 90° |
| 2026-04-21 01:48 | 22.92847 | 68.88174 | 34870 ft | 478 kts | 90° |
| 2026-04-21 01:48 | 22.92416 | 68.95316 | 34872 ft | 478 kts | 90° |
| 2026-04-21 01:49 | 22.91977 | 69.02517 | 34875 ft | 478 kts | 90° |
| 2026-04-21 01:49 | 22.91536 | 69.09716 | 34876 ft | 478 kts | 90° |
| 2026-04-21 01:50 | 22.91091 | 69.16919 | 34875 ft | 479 kts | 90° |
| 2026-04-21 01:50 | 22.90643 | 69.24121 | 34872 ft | 479 kts | 90° |
| 2026-04-21 01:51 | 22.90192 | 69.31329 | 34875 ft | 479 kts | 90° |
| 2026-04-21 01:51 | 22.89736 | 69.38541 | 34875 ft | 479 kts | 90° |
| 2026-04-21 01:52 | 22.89047 | 69.49365 | 34882 ft | 480 kts | 90° |
| 2026-04-21 01:53 | 22.88583 | 69.56584 | 34875 ft | 480 kts | 90° |
| 2026-04-21 01:53 | 22.88116 | 69.63811 | 34879 ft | 481 kts | 90° |
| 2026-04-21 01:54 | 22.87646 | 69.71047 | 34876 ft | 481 kts | 90° |
| 2026-04-21 01:54 | 22.87215 | 69.78288 | 34878 ft | 481 kts | 90° |
| 2026-04-21 01:55 | 22.86804 | 69.85535 | 34882 ft | 481 kts | 90° |
| 2026-04-21 01:55 | 22.86386 | 69.92777 | 34882 ft | 482 kts | 90° |
| 2026-04-21 01:56 | 22.85958 | 70.00031 | 34879 ft | 482 kts | 90° |
| 2026-04-21 01:56 | 22.85525 | 70.07288 | 34880 ft | 482 kts | 90° |
| 2026-04-21 01:57 | 22.85090 | 70.14538 | 34883 ft | 482 kts | 90° |
| 2026-04-21 01:57 | 22.84654 | 70.21740 | 34882 ft | 482 kts | 90° |
| 2026-04-21 01:58 | 22.84212 | 70.28997 | 34882 ft | 482 kts | 89° |
| 2026-04-21 01:58 | 22.83767 | 70.36252 | 34882 ft | 482 kts | 89° |
| 2026-04-21 01:59 | 22.83319 | 70.43502 | 34880 ft | 482 kts | 89° |
| 2026-04-21 01:59 | 22.82867 | 70.50750 | 34882 ft | 482 kts | 89° |
| 2026-04-21 02:00 | 22.82413 | 70.57995 | 34882 ft | 482 kts | 89° |
| 2026-04-21 02:00 | 22.81955 | 70.65235 | 34882 ft | 481 kts | 89° |
| 2026-04-21 02:01 | 22.81495 | 70.72469 | 34882 ft | 481 kts | 89° |
| 2026-04-21 02:01 | 22.81035 | 70.79699 | 34886 ft | 480 kts | 88° |
| 2026-04-21 02:02 | 22.81253 | 70.86865 | 34886 ft | 472 kts | 77° |
| 2026-04-21 02:02 | 22.82330 | 70.93868 | 34893 ft | 471 kts | 76° |
| 2026-04-21 02:03 | 22.83430 | 71.00869 | 34882 ft | 472 kts | 76° |
| 2026-04-21 02:03 | 22.84500 | 71.07891 | 34884 ft | 472 kts | 76° |
| 2026-04-21 02:04 | 22.85551 | 71.14911 | 34881 ft | 472 kts | 76° |
| 2026-04-21 02:04 | 22.86596 | 71.21945 | 34880 ft | 472 kts | 76° |
| 2026-04-21 02:05 | 22.87638 | 71.28973 | 34873 ft | 472 kts | 76° |
| 2026-04-21 02:05 | 22.88679 | 71.36004 | 34873 ft | 472 kts | 76° |
| 2026-04-21 02:06 | 22.89718 | 71.43047 | 34872 ft | 473 kts | 76° |
| 2026-04-21 02:06 | 22.90752 | 71.50081 | 34868 ft | 473 kts | 76° |
| 2026-04-21 02:07 | 22.91778 | 71.57081 | 34867 ft | 473 kts | 76° |
| 2026-04-21 02:07 | 22.92809 | 71.64129 | 34862 ft | 473 kts | 77° |
| 2026-04-21 02:08 | 22.93835 | 71.71177 | 34861 ft | 473 kts | 77° |
| 2026-04-21 02:08 | 22.94860 | 71.78230 | 34861 ft | 473 kts | 77° |
| 2026-04-21 02:09 | 22.95882 | 71.85289 | 34859 ft | 474 kts | 77° |
| 2026-04-21 02:09 | 22.96901 | 71.92356 | 34858 ft | 474 kts | 77° |
| 2026-04-21 02:10 | 22.97919 | 71.99427 | 34853 ft | 475 kts | 77° |
| 2026-04-21 02:10 | 22.98934 | 72.06509 | 34851 ft | 475 kts | 77° |
| 2026-04-21 02:11 | 22.99949 | 72.13610 | 34850 ft | 476 kts | 77° |
| 2026-04-21 02:11 | 23.00791 | 72.19521 | 34853 ft | 477 kts | 77° |
| 2026-04-21 02:12 | 23.01803 | 72.26643 | 34850 ft | 478 kts | 77° |
| 2026-04-21 02:12 | 23.02814 | 72.33787 | 34853 ft | 479 kts | 77° |
| 2026-04-21 02:13 | 23.03825 | 72.40952 | 34852 ft | 481 kts | 78° |
| 2026-04-21 02:13 | 23.04835 | 72.48134 | 34858 ft | 482 kts | 78° |
| 2026-04-21 02:14 | 23.05845 | 72.55339 | 34855 ft | 483 kts | 78° |
| 2026-04-21 02:14 | 23.06845 | 72.62568 | 34858 ft | 485 kts | 79° |
| 2026-04-21 02:15 | 23.07368 | 72.69901 | 34864 ft | 488 kts | 84° |
| 2026-04-21 02:15 | 23.07742 | 72.77277 | 34858 ft | 490 kts | 84° |
| 2026-04-21 02:16 | 23.08125 | 72.84671 | 34852 ft | 491 kts | 84° |
| 2026-04-21 02:16 | 23.08525 | 72.92042 | 34852 ft | 493 kts | 84° |
| 2026-04-21 02:17 | 23.08936 | 72.99524 | 34855 ft | 494 kts | 84° |
| 2026-04-21 02:17 | 23.09340 | 73.06932 | 34844 ft | 495 kts | 85° |
| 2026-04-21 02:18 | 23.09743 | 73.14407 | 34844 ft | 496 kts | 85° |
| 2026-04-21 02:18 | 23.10143 | 73.21904 | 34859 ft | 497 kts | 85° |
| 2026-04-21 02:19 | 23.10539 | 73.29408 | 34863 ft | 498 kts | 85° |
| 2026-04-21 02:19 | 23.10934 | 73.36935 | 34849 ft | 499 kts | 85° |
| 2026-04-21 02:20 | 23.11325 | 73.44471 | 34852 ft | 500 kts | 86° |
| 2026-04-21 02:20 | 23.11713 | 73.52030 | 34864 ft | 501 kts | 86° |
| 2026-04-21 02:21 | 23.12099 | 73.59600 | 34856 ft | 502 kts | 86° |
| 2026-04-21 02:21 | 23.12482 | 73.67184 | 34873 ft | 503 kts | 86° |
| 2026-04-21 02:22 | 23.12862 | 73.74786 | 34861 ft | 504 kts | 86° |
| 2026-04-21 02:22 | 23.13238 | 73.82394 | 34876 ft | 505 kts | 86° |
| 2026-04-21 02:23 | 23.13611 | 73.90005 | 34863 ft | 505 kts | 86° |
| 2026-04-21 02:23 | 23.13981 | 73.97635 | 34868 ft | 506 kts | 87° |
| 2026-04-21 02:24 | 23.14348 | 74.05273 | 34874 ft | 507 kts | 87° |
| 2026-04-21 02:24 | 23.14710 | 74.12882 | 34880 ft | 508 kts | 87° |
| 2026-04-21 02:25 | 23.15071 | 74.20560 | 34890 ft | 510 kts | 87° |
| 2026-04-21 02:25 | 23.15431 | 74.28261 | 34891 ft | 511 kts | 88° |
| 2026-04-21 02:26 | 23.15777 | 74.35985 | 34894 ft | 512 kts | 88° |
| 2026-04-21 02:26 | 23.15963 | 74.43735 | 34897 ft | 514 kts | 90° |
| 2026-04-21 02:27 | 23.16085 | 74.51506 | 34912 ft | 515 kts | 90° |
| 2026-04-21 02:27 | 23.16220 | 74.59298 | 34903 ft | 516 kts | 90° |
| 2026-04-21 02:28 | 23.16371 | 74.67102 | 34918 ft | 517 kts | 90° |
| 2026-04-21 02:28 | 23.16524 | 74.74931 | 34921 ft | 518 kts | 90° |
| 2026-04-21 02:29 | 23.16672 | 74.82764 | 34915 ft | 519 kts | 90° |
| 2026-04-21 02:29 | 23.16815 | 74.90617 | 34926 ft | 520 kts | 90° |
| 2026-04-21 02:30 | 23.16954 | 74.98479 | 34933 ft | 521 kts | 90° |
| 2026-04-21 02:30 | 23.17089 | 75.06349 | 34939 ft | 522 kts | 91° |
| 2026-04-21 02:31 | 23.17221 | 75.14240 | 34927 ft | 522 kts | 91° |
| 2026-04-21 02:31 | 23.17349 | 75.22132 | 34937 ft | 523 kts | 91° |
| 2026-04-21 02:32 | 23.17473 | 75.30039 | 34939 ft | 524 kts | 91° |
| 2026-04-21 02:32 | 23.17594 | 75.37955 | 34932 ft | 524 kts | 91° |
| 2026-04-21 02:33 | 23.17711 | 75.45885 | 34943 ft | 525 kts | 91° |
| 2026-04-21 02:33 | 23.17823 | 75.53813 | 34937 ft | 525 kts | 91° |
| 2026-04-21 02:34 | 23.17932 | 75.61751 | 34931 ft | 526 kts | 91° |
| 2026-04-21 02:34 | 23.18037 | 75.69696 | 34934 ft | 526 kts | 92° |
| 2026-04-21 02:35 | 23.18137 | 75.77594 | 34946 ft | 526 kts | 92° |
| 2026-04-21 02:35 | 23.18235 | 75.85552 | 34932 ft | 527 kts | 92° |
| 2026-04-21 02:36 | 23.18328 | 75.93522 | 34930 ft | 527 kts | 92° |
| 2026-04-21 02:36 | 23.18479 | 76.01496 | 34927 ft | 529 kts | 89° |
| 2026-04-21 02:37 | 23.19075 | 76.09472 | 34941 ft | 530 kts | 87° |
| 2026-04-21 02:37 | 23.19742 | 76.17460 | 34922 ft | 531 kts | 87° |
| 2026-04-21 02:38 | 23.20383 | 76.25455 | 34924 ft | 531 kts | 88° |
| 2026-04-21 02:38 | 23.20997 | 76.33464 | 34931 ft | 532 kts | 88° |
| 2026-04-21 02:39 | 23.21601 | 76.41484 | 34912 ft | 533 kts | 88° |
| 2026-04-21 02:39 | 23.22205 | 76.49514 | 34924 ft | 534 kts | 88° |
| 2026-04-21 02:40 | 23.22802 | 76.57508 | 34913 ft | 534 kts | 88° |
| 2026-04-21 02:40 | 23.23402 | 76.65570 | 34917 ft | 535 kts | 88° |
| 2026-04-21 02:41 | 23.23998 | 76.73640 | 34908 ft | 536 kts | 88° |
| 2026-04-21 02:41 | 23.24591 | 76.81734 | 34916 ft | 537 kts | 88° |
| 2026-04-21 02:42 | 23.25181 | 76.89840 | 34912 ft | 538 kts | 89° |
| 2026-04-21 02:42 | 23.25767 | 76.97955 | 34901 ft | 539 kts | 89° |
| 2026-04-21 02:43 | 23.26350 | 77.06082 | 34905 ft | 540 kts | 89° |
| 2026-04-21 02:43 | 23.26930 | 77.14225 | 34903 ft | 540 kts | 89° |
| 2026-04-21 02:44 | 23.27507 | 77.22379 | 34898 ft | 541 kts | 89° |
| 2026-04-21 02:44 | 23.28080 | 77.30537 | 34894 ft | 542 kts | 89° |
| 2026-04-21 02:45 | 23.28214 | 77.38694 | 34901 ft | 538 kts | 97° |
| 2026-04-21 02:45 | 23.27840 | 77.46813 | 34889 ft | 538 kts | 97° |
| 2026-04-21 02:46 | 23.27447 | 77.54939 | 34887 ft | 539 kts | 97° |
| 2026-04-21 02:46 | 23.27092 | 77.63092 | 34886 ft | 540 kts | 97° |
| 2026-04-21 02:47 | 23.26756 | 77.71196 | 34878 ft | 541 kts | 97° |
| 2026-04-21 02:47 | 23.26415 | 77.79364 | 34885 ft | 541 kts | 97° |
| 2026-04-21 02:48 | 23.26067 | 77.87541 | 34879 ft | 542 kts | 97° |
| 2026-04-21 02:48 | 23.25710 | 77.95728 | 34875 ft | 542 kts | 98° |
| 2026-04-21 02:49 | 23.25349 | 78.03915 | 34878 ft | 542 kts | 98° |
| 2026-04-21 02:49 | 23.24986 | 78.12101 | 34875 ft | 542 kts | 98° |
| 2026-04-21 02:50 | 23.24617 | 78.20297 | 34877 ft | 543 kts | 98° |
| 2026-04-21 02:50 | 23.24243 | 78.28499 | 34872 ft | 543 kts | 98° |
| 2026-04-21 02:51 | 23.23865 | 78.36708 | 34872 ft | 544 kts | 98° |
| 2026-04-21 02:51 | 23.23482 | 78.44923 | 34873 ft | 545 kts | 98° |
| 2026-04-21 02:52 | 23.23095 | 78.53152 | 34870 ft | 546 kts | 98° |
| 2026-04-21 02:52 | 23.22703 | 78.61395 | 34870 ft | 546 kts | 98° |
| 2026-04-21 02:53 | 23.22306 | 78.69646 | 34881 ft | 547 kts | 99° |
| 2026-04-21 02:53 | 23.21950 | 78.77923 | 34882 ft | 549 kts | 97° |
| 2026-04-21 02:54 | 23.21840 | 78.86237 | 34891 ft | 551 kts | 96° |
| 2026-04-21 02:54 | 23.21777 | 78.94574 | 34881 ft | 552 kts | 96° |
| 2026-04-21 02:55 | 23.21666 | 79.02918 | 34874 ft | 552 kts | 96° |
| 2026-04-21 02:55 | 23.21527 | 79.11270 | 34878 ft | 552 kts | 97° |
| 2026-04-21 02:56 | 23.21381 | 79.19624 | 34867 ft | 553 kts | 97° |
| 2026-04-21 02:56 | 23.21160 | 79.32162 | 34872 ft | 553 kts | 97° |
| 2026-04-21 02:57 | 23.21008 | 79.40526 | 34870 ft | 554 kts | 97° |
| 2026-04-21 02:57 | 23.20853 | 79.48838 | 34868 ft | 554 kts | 97° |
| 2026-04-21 02:58 | 23.20718 | 79.55861 | 34866 ft | 555 kts | 97° |
| 2026-04-21 02:58 | 23.20392 | 79.65591 | 34868 ft | 554 kts | 99° |
| 2026-04-21 02:59 | 23.20000 | 79.73956 | 34875 ft | 554 kts | 99° |
| 2026-04-21 02:59 | 23.19626 | 79.82329 | 34886 ft | 555 kts | 98° |
| 2026-04-21 03:00 | 23.19327 | 79.89350 | 34900 ft | 555 kts | 98° |
| 2026-04-21 03:00 | 23.18967 | 79.97728 | 34915 ft | 555 kts | 98° |
| 2026-04-21 03:01 | 23.18599 | 80.06118 | 34910 ft | 556 kts | 99° |
| 2026-04-21 03:01 | 23.18191 | 80.14495 | 34920 ft | 556 kts | 99° |
| 2026-04-21 03:02 | 23.17749 | 80.22889 | 34906 ft | 556 kts | 99° |
| 2026-04-21 03:02 | 23.17309 | 80.31229 | 34884 ft | 557 kts | 99° |
| 2026-04-21 03:03 | 23.16869 | 80.39633 | 34879 ft | 557 kts | 99° |
| 2026-04-21 03:03 | 23.16426 | 80.48036 | 34872 ft | 558 kts | 99° |
| 2026-04-21 03:04 | 23.15977 | 80.56455 | 34877 ft | 558 kts | 99° |
| 2026-04-21 03:04 | 23.15523 | 80.64879 | 34875 ft | 559 kts | 99° |
| 2026-04-21 03:05 | 23.15065 | 80.73300 | 34870 ft | 559 kts | 99° |
| 2026-04-21 03:05 | 23.14603 | 80.81729 | 34877 ft | 559 kts | 99° |
| 2026-04-21 03:06 | 23.14141 | 80.90168 | 34867 ft | 560 kts | 99° |
| 2026-04-21 03:06 | 23.13678 | 80.98608 | 34865 ft | 560 kts | 99° |
| 2026-04-21 03:07 | 23.13208 | 81.07041 | 34869 ft | 559 kts | 99° |
| 2026-04-21 03:07 | 23.12736 | 81.15475 | 34866 ft | 559 kts | 99° |
| 2026-04-21 03:08 | 23.12254 | 81.23905 | 34867 ft | 560 kts | 99° |
| 2026-04-21 03:08 | 23.11771 | 81.32291 | 34854 ft | 560 kts | 99° |
| 2026-04-21 03:09 | 23.11285 | 81.40726 | 34857 ft | 559 kts | 99° |
| 2026-04-21 03:09 | 23.10794 | 81.49149 | 34852 ft | 559 kts | 99° |
| 2026-04-21 03:10 | 23.10297 | 81.57582 | 34851 ft | 559 kts | 99° |
| 2026-04-21 03:10 | 23.09796 | 81.66002 | 34849 ft | 559 kts | 99° |
| 2026-04-21 03:11 | 23.09291 | 81.74426 | 34849 ft | 559 kts | 99° |
| 2026-04-21 03:11 | 23.08781 | 81.82849 | 34842 ft | 559 kts | 99° |
| 2026-04-21 03:12 | 23.08267 | 81.91268 | 34843 ft | 559 kts | 99° |
| 2026-04-21 03:12 | 23.07748 | 81.99691 | 34842 ft | 559 kts | 99° |
| 2026-04-21 03:13 | 23.07225 | 82.08115 | 34836 ft | 559 kts | 99° |
| 2026-04-21 03:13 | 23.06698 | 82.16537 | 34834 ft | 559 kts | 99° |
| 2026-04-21 03:14 | 23.06273 | 82.24975 | 34833 ft | 560 kts | 98° |
| 2026-04-21 03:14 | 23.05939 | 82.33426 | 34830 ft | 560 kts | 98° |
| 2026-04-21 03:15 | 23.05595 | 82.41879 | 34836 ft | 560 kts | 98° |
| 2026-04-21 03:15 | 23.05226 | 82.50325 | 34834 ft | 560 kts | 98° |
| 2026-04-21 03:16 | 23.04842 | 82.58767 | 34835 ft | 560 kts | 98° |
| 2026-04-21 03:16 | 23.04454 | 82.67198 | 34850 ft | 559 kts | 98° |
| 2026-04-21 03:17 | 23.04064 | 82.75636 | 34849 ft | 559 kts | 98° |
| 2026-04-21 03:17 | 23.03671 | 82.84068 | 34848 ft | 559 kts | 98° |
| 2026-04-21 03:18 | 23.03276 | 82.92448 | 34858 ft | 559 kts | 99° |
| 2026-04-21 03:18 | 23.02874 | 83.00875 | 34853 ft | 559 kts | 99° |
| 2026-04-21 03:19 | 23.02467 | 83.09301 | 34871 ft | 559 kts | 99° |
| 2026-04-21 03:19 | 23.02056 | 83.17715 | 34867 ft | 559 kts | 99° |
| 2026-04-21 03:20 | 23.01641 | 83.26131 | 34875 ft | 558 kts | 99° |
| 2026-04-21 03:20 | 23.01221 | 83.34543 | 34883 ft | 558 kts | 99° |
| 2026-04-21 03:21 | 23.00797 | 83.42963 | 34887 ft | 558 kts | 99° |
| 2026-04-21 03:21 | 23.00369 | 83.51374 | 34892 ft | 558 kts | 99° |
| 2026-04-21 03:22 | 22.99936 | 83.59770 | 34895 ft | 558 kts | 99° |
| 2026-04-21 03:22 | 22.99498 | 83.68192 | 34902 ft | 558 kts | 99° |
| 2026-04-21 03:23 | 22.99057 | 83.76602 | 34906 ft | 558 kts | 99° |
| 2026-04-21 03:23 | 22.98612 | 83.85004 | 34900 ft | 558 kts | 99° |
| 2026-04-21 03:24 | 22.98161 | 83.93408 | 34898 ft | 558 kts | 99° |
| 2026-04-21 03:24 | 22.97706 | 84.01805 | 34903 ft | 557 kts | 99° |
| 2026-04-21 03:25 | 22.97249 | 84.10197 | 34907 ft | 557 kts | 99° |
| 2026-04-21 03:25 | 22.96743 | 84.18571 | 34909 ft | 555 kts | 100° |
| 2026-04-21 03:26 | 22.96132 | 84.26867 | 34909 ft | 555 kts | 100° |
| 2026-04-21 03:26 | 22.95501 | 84.35263 | 34916 ft | 555 kts | 100° |
| 2026-04-21 03:27 | 22.94891 | 84.43559 | 34918 ft | 555 kts | 100° |
| 2026-04-21 03:27 | 22.94282 | 84.51913 | 34910 ft | 555 kts | 100° |
| 2026-04-21 03:28 | 22.93671 | 84.60251 | 34911 ft | 555 kts | 100° |
| 2026-04-21 03:28 | 22.93053 | 84.68587 | 34918 ft | 554 kts | 100° |
| 2026-04-21 03:29 | 22.92429 | 84.76925 | 34924 ft | 554 kts | 100° |
| 2026-04-21 03:29 | 22.91802 | 84.85259 | 34924 ft | 555 kts | 100° |
| 2026-04-21 03:30 | 22.91170 | 84.93607 | 34918 ft | 555 kts | 100° |
| 2026-04-21 03:30 | 22.90534 | 85.01949 | 34917 ft | 555 kts | 100° |
| 2026-04-21 03:31 | 22.89895 | 85.10282 | 34922 ft | 554 kts | 100° |
| 2026-04-21 03:31 | 22.89252 | 85.18606 | 34919 ft | 554 kts | 100° |
| 2026-04-21 03:32 | 22.88604 | 85.26935 | 34915 ft | 554 kts | 100° |
| 2026-04-21 03:32 | 22.87954 | 85.35260 | 34910 ft | 554 kts | 100° |
| 2026-04-21 03:33 | 22.87300 | 85.43573 | 34908 ft | 554 kts | 100° |
| 2026-04-21 03:33 | 22.86641 | 85.51884 | 34911 ft | 553 kts | 100° |
| 2026-04-21 03:34 | 22.85980 | 85.60181 | 34897 ft | 552 kts | 100° |
| 2026-04-21 03:34 | 22.85314 | 85.68479 | 34902 ft | 553 kts | 100° |
| 2026-04-21 03:35 | 22.84643 | 85.76780 | 34873 ft | 552 kts | 100° |
| 2026-04-21 03:35 | 22.83973 | 85.85020 | 34851 ft | 551 kts | 100° |
| 2026-04-21 03:36 | 22.83297 | 85.93290 | 34837 ft | 551 kts | 100° |
| 2026-04-21 03:36 | 22.82616 | 86.01558 | 34809 ft | 551 kts | 100° |
| 2026-04-21 03:37 | 22.81931 | 86.09828 | 34807 ft | 550 kts | 100° |
| 2026-04-21 03:37 | 22.81243 | 86.18091 | 34799 ft | 551 kts | 99° |
| 2026-04-21 03:38 | 22.80728 | 86.26378 | 34809 ft | 552 kts | 97° |
| 2026-04-21 03:38 | 22.80337 | 86.34700 | 34819 ft | 553 kts | 97° |
| 2026-04-21 03:39 | 22.79929 | 86.43017 | 34799 ft | 553 kts | 97° |
| 2026-04-21 03:39 | 22.79483 | 86.51322 | 34826 ft | 552 kts | 98° |
| 2026-04-21 03:40 | 22.79024 | 86.59622 | 34821 ft | 552 kts | 98° |
| 2026-04-21 03:40 | 22.78559 | 86.67915 | 34812 ft | 551 kts | 98° |
| 2026-04-21 03:41 | 22.78094 | 86.76205 | 34807 ft | 550 kts | 98° |
| 2026-04-21 03:41 | 22.77625 | 86.84479 | 34805 ft | 550 kts | 98° |
| 2026-04-21 03:42 | 22.77152 | 86.92741 | 34801 ft | 549 kts | 98° |
| 2026-04-21 03:42 | 22.76680 | 87.00934 | 34792 ft | 549 kts | 98° |
| 2026-04-21 03:43 | 22.76201 | 87.09175 | 34787 ft | 548 kts | 98° |
| 2026-04-21 03:43 | 22.75717 | 87.17423 | 34784 ft | 548 kts | 98° |
| 2026-04-21 03:44 | 22.75229 | 87.25662 | 34786 ft | 549 kts | 98° |
| 2026-04-21 03:44 | 22.74736 | 87.33911 | 34783 ft | 549 kts | 98° |
| 2026-04-21 03:45 | 22.74238 | 87.42172 | 34783 ft | 550 kts | 98° |
| 2026-04-21 03:45 | 22.73736 | 87.50443 | 34782 ft | 550 kts | 98° |
| 2026-04-21 03:46 | 22.73228 | 87.58721 | 34776 ft | 551 kts | 98° |
| 2026-04-21 03:46 | 22.72716 | 87.67005 | 34780 ft | 552 kts | 98° |
| 2026-04-21 03:47 | 22.72287 | 87.73896 | 34780 ft | 552 kts | 98° |
| 2026-04-21 03:47 | 22.71766 | 87.82194 | 34778 ft | 552 kts | 98° |
| 2026-04-21 03:48 | 22.71241 | 87.90495 | 34777 ft | 553 kts | 98° |
| 2026-04-21 03:48 | 22.70711 | 87.98805 | 34774 ft | 553 kts | 98° |
| 2026-04-21 03:49 | 22.70177 | 88.07122 | 34770 ft | 553 kts | 98° |
| 2026-04-21 03:49 | 22.69638 | 88.15431 | 34771 ft | 553 kts | 98° |
| 2026-04-21 03:50 | 22.69094 | 88.23749 | 34773 ft | 553 kts | 98° |
| 2026-04-21 03:50 | 22.68547 | 88.32057 | 34771 ft | 554 kts | 98° |
| 2026-04-21 03:51 | 22.67996 | 88.40378 | 34775 ft | 554 kts | 98° |
| 2026-04-21 03:51 | 22.67165 | 88.48634 | 34777 ft | 549 kts | 104° |
| 2026-04-21 03:52 | 22.65764 | 88.56750 | 34773 ft | 549 kts | 105° |
| 2026-04-21 03:52 | 22.64338 | 88.64872 | 34773 ft | 549 kts | 105° |
| 2026-04-21 03:53 | 22.62960 | 88.73004 | 34774 ft | 550 kts | 105° |
| 2026-04-21 03:53 | 22.61593 | 88.81151 | 34777 ft | 550 kts | 105° |
| 2026-04-21 03:54 | 22.60217 | 88.89292 | 34781 ft | 550 kts | 105° |
| 2026-04-21 03:54 | 22.58968 | 88.97416 | 34779 ft | 552 kts | 101° |
| 2026-04-21 03:55 | 22.58060 | 89.05672 | 34783 ft | 553 kts | 100° |
| 2026-04-21 03:55 | 22.57202 | 89.13940 | 34788 ft | 553 kts | 100° |
| 2026-04-21 03:56 | 22.56314 | 89.22202 | 34790 ft | 553 kts | 101° |
| 2026-04-21 03:56 | 22.55398 | 89.30455 | 34790 ft | 553 kts | 101° |
| 2026-04-21 03:57 | 22.54472 | 89.38710 | 34790 ft | 552 kts | 101° |
| 2026-04-21 03:57 | 22.53545 | 89.46961 | 34796 ft | 552 kts | 101° |
| 2026-04-21 03:58 | 22.52615 | 89.55208 | 34796 ft | 552 kts | 101° |
| 2026-04-21 03:58 | 22.51683 | 89.63449 | 34804 ft | 552 kts | 101° |
| 2026-04-21 03:59 | 22.50745 | 89.71692 | 34801 ft | 552 kts | 101° |
| 2026-04-21 04:00 | 22.49332 | 89.84047 | 34807 ft | 552 kts | 101° |
| 2026-04-21 04:00 | 22.48385 | 89.92281 | 34811 ft | 552 kts | 101° |
| 2026-04-21 04:01 | 22.47434 | 90.00514 | 34814 ft | 552 kts | 101° |
| 2026-04-21 04:01 | 22.46479 | 90.08740 | 34822 ft | 551 kts | 101° |
| 2026-04-21 04:02 | 22.45521 | 90.16960 | 34827 ft | 551 kts | 101° |
| 2026-04-21 04:02 | 22.44557 | 90.25184 | 34825 ft | 551 kts | 101° |
| 2026-04-21 04:03 | 22.43591 | 90.33400 | 34826 ft | 551 kts | 101° |
| 2026-04-21 04:03 | 22.42628 | 90.41552 | 34828 ft | 550 kts | 101° |
| 2026-04-21 04:04 | 22.41649 | 90.49803 | 34839 ft | 550 kts | 100° |
| 2026-04-21 04:04 | 22.40673 | 90.57987 | 34839 ft | 549 kts | 100° |
| 2026-04-21 04:05 | 22.39700 | 90.66114 | 34840 ft | 548 kts | 100° |
| 2026-04-21 04:05 | 22.38719 | 90.74277 | 34844 ft | 548 kts | 100° |
| 2026-04-21 04:06 | 22.37733 | 90.82440 | 34846 ft | 547 kts | 100° |
| 2026-04-21 04:06 | 22.36745 | 90.90588 | 34848 ft | 547 kts | 100° |
| 2026-04-21 04:07 | 22.35752 | 90.98737 | 34851 ft | 547 kts | 100° |
| 2026-04-21 04:07 | 22.34757 | 91.06873 | 34851 ft | 546 kts | 100° |
| 2026-04-21 04:08 | 22.33752 | 91.15056 | 34851 ft | 546 kts | 100° |
| 2026-04-21 04:08 | 22.32755 | 91.23138 | 34850 ft | 546 kts | 100° |
| 2026-04-21 04:09 | 22.31750 | 91.31259 | 34858 ft | 546 kts | 100° |
| 2026-04-21 04:09 | 22.30742 | 91.39388 | 34857 ft | 546 kts | 100° |
| 2026-04-21 04:10 | 22.29809 | 91.47524 | 34861 ft | 546 kts | 99° |
| 2026-04-21 04:10 | 22.28905 | 91.55670 | 34867 ft | 546 kts | 99° |
| 2026-04-21 04:11 | 22.27984 | 91.63805 | 34877 ft | 546 kts | 99° |
| 2026-04-21 04:11 | 22.27050 | 91.71941 | 34881 ft | 546 kts | 99° |
| 2026-04-21 04:12 | 22.26219 | 91.80089 | 34894 ft | 547 kts | 94° |
| 2026-04-21 04:12 | 22.26438 | 91.88314 | 34876 ft | 549 kts | 83° |
| 2026-04-21 04:13 | 22.27609 | 91.96453 | 34884 ft | 549 kts | 81° |
| 2026-04-21 04:13 | 22.28807 | 92.04589 | 34874 ft | 548 kts | 81° |
| 2026-04-21 04:14 | 22.29935 | 92.12732 | 34870 ft | 548 kts | 82° |
| 2026-04-21 04:14 | 22.31038 | 92.20869 | 34865 ft | 548 kts | 82° |
| 2026-04-21 04:15 | 22.32148 | 92.29011 | 34869 ft | 548 kts | 82° |
| 2026-04-21 04:15 | 22.33267 | 92.37151 | 34865 ft | 548 kts | 82° |
| 2026-04-21 04:16 | 22.34382 | 92.45285 | 34874 ft | 548 kts | 82° |
| 2026-04-21 04:16 | 22.35492 | 92.53424 | 34878 ft | 548 kts | 82° |
| 2026-04-21 04:17 | 22.36598 | 92.61558 | 34891 ft | 548 kts | 82° |
| 2026-04-21 04:17 | 22.37693 | 92.69654 | 34888 ft | 548 kts | 82° |
| 2026-04-21 04:18 | 22.38794 | 92.77812 | 34890 ft | 549 kts | 82° |
| 2026-04-21 04:18 | 22.39894 | 92.85969 | 34898 ft | 548 kts | 82° |
| 2026-04-21 04:19 | 22.40990 | 92.94117 | 34901 ft | 548 kts | 82° |
| 2026-04-21 04:19 | 22.42081 | 93.02267 | 34920 ft | 548 kts | 81° |
| 2026-04-21 04:20 | 22.43168 | 93.10421 | 34926 ft | 549 kts | 82° |
| 2026-04-21 04:20 | 22.44255 | 93.18604 | 34904 ft | 550 kts | 81° |
| 2026-04-21 04:21 | 22.45337 | 93.26787 | 34940 ft | 550 kts | 82° |
| 2026-04-21 04:21 | 22.46416 | 93.34975 | 34956 ft | 550 kts | 82° |
| 2026-04-21 04:22 | 22.47491 | 93.43172 | 34927 ft | 550 kts | 81° |
| 2026-04-21 04:22 | 22.48560 | 93.51351 | 34922 ft | 549 kts | 82° |
| 2026-04-21 04:23 | 22.49625 | 93.59521 | 34905 ft | 548 kts | 82° |
| 2026-04-21 04:23 | 22.50681 | 93.67683 | 34895 ft | 549 kts | 82° |
| 2026-04-21 04:24 | 22.51737 | 93.75866 | 34851 ft | 549 kts | 82° |
| 2026-04-21 04:24 | 22.52791 | 93.84040 | 34847 ft | 548 kts | 82° |
| 2026-04-21 04:25 | 22.53839 | 93.92215 | 34822 ft | 549 kts | 82° |
| 2026-04-21 04:25 | 22.54883 | 94.00396 | 34815 ft | 550 kts | 82° |
| 2026-04-21 04:26 | 22.55924 | 94.08608 | 34798 ft | 552 kts | 82° |
| 2026-04-21 04:26 | 22.56964 | 94.16838 | 34796 ft | 552 kts | 82° |
| 2026-04-21 04:27 | 22.58001 | 94.25068 | 34794 ft | 552 kts | 82° |
| 2026-04-21 04:27 | 22.59032 | 94.33285 | 34789 ft | 550 kts | 82° |
| 2026-04-21 04:28 | 22.60057 | 94.41486 | 34792 ft | 550 kts | 82° |
| 2026-04-21 04:28 | 22.61074 | 94.49667 | 34793 ft | 547 kts | 82° |
| 2026-04-21 04:29 | 22.62085 | 94.57827 | 34798 ft | 547 kts | 82° |
| 2026-04-21 04:29 | 22.63093 | 94.65999 | 34791 ft | 547 kts | 82° |
| 2026-04-21 04:30 | 22.64088 | 94.74098 | 34789 ft | 548 kts | 82° |
| 2026-04-21 04:30 | 22.65089 | 94.82278 | 34788 ft | 548 kts | 82° |
| 2026-04-21 04:31 | 22.66086 | 94.90466 | 34781 ft | 548 kts | 82° |
| 2026-04-21 04:31 | 22.67079 | 94.98654 | 34788 ft | 549 kts | 82° |
| 2026-04-21 04:32 | 22.68068 | 95.06850 | 34786 ft | 549 kts | 82° |
| 2026-04-21 04:32 | 22.69054 | 95.15051 | 34785 ft | 549 kts | 82° |
| 2026-04-21 04:33 | 22.70035 | 95.23246 | 34785 ft | 549 kts | 82° |
| 2026-04-21 04:33 | 22.71012 | 95.31452 | 34789 ft | 549 kts | 82° |
| 2026-04-21 04:34 | 22.71985 | 95.39653 | 34782 ft | 549 kts | 82° |
| 2026-04-21 04:34 | 22.72953 | 95.47853 | 34783 ft | 549 kts | 82° |
| 2026-04-21 04:35 | 22.73918 | 95.56060 | 34780 ft | 549 kts | 82° |
| 2026-04-21 04:35 | 22.74879 | 95.64270 | 34783 ft | 549 kts | 82° |
| 2026-04-21 04:36 | 22.75674 | 95.71091 | 34783 ft | 549 kts | 82° |
| 2026-04-21 04:36 | 22.76627 | 95.79299 | 34784 ft | 549 kts | 82° |
| 2026-04-21 04:37 | 22.77574 | 95.87501 | 34785 ft | 549 kts | 82° |
| 2026-04-21 04:37 | 22.78518 | 95.95708 | 34793 ft | 549 kts | 82° |
| 2026-04-21 04:38 | 22.79458 | 96.03914 | 34799 ft | 549 kts | 82° |
| 2026-04-21 04:38 | 22.80393 | 96.12126 | 34806 ft | 549 kts | 82° |
| 2026-04-21 04:39 | 22.81326 | 96.20338 | 34807 ft | 549 kts | 82° |
| 2026-04-21 04:39 | 22.82252 | 96.28548 | 34829 ft | 548 kts | 82° |
| 2026-04-21 04:40 | 22.83173 | 96.36758 | 34832 ft | 549 kts | 82° |
| 2026-04-21 04:40 | 22.84094 | 96.44973 | 34829 ft | 548 kts | 82° |
| 2026-04-21 04:41 | 22.85007 | 96.53170 | 34833 ft | 547 kts | 82° |
| 2026-04-21 04:41 | 22.85913 | 96.61346 | 34840 ft | 546 kts | 82° |
| 2026-04-21 04:42 | 22.86808 | 96.69473 | 34854 ft | 547 kts | 82° |
| 2026-04-21 04:42 | 22.87707 | 96.77668 | 34848 ft | 548 kts | 82° |
| 2026-04-21 04:43 | 22.88605 | 96.85884 | 34864 ft | 550 kts | 82° |
| 2026-04-21 04:43 | 22.89507 | 96.94181 | 34853 ft | 550 kts | 82° |
| 2026-04-21 04:44 | 22.90398 | 97.02424 | 34859 ft | 550 kts | 82° |
| 2026-04-21 04:44 | 22.91285 | 97.10670 | 34868 ft | 551 kts | 82° |
| 2026-04-21 04:45 | 22.92164 | 97.18876 | 34851 ft | 552 kts | 82° |
| 2026-04-21 04:45 | 22.93045 | 97.27142 | 34866 ft | 552 kts | 82° |
| 2026-04-21 04:46 | 22.93923 | 97.35422 | 34852 ft | 553 kts | 82° |
| 2026-04-21 04:46 | 22.94797 | 97.43709 | 34849 ft | 553 kts | 82° |
| 2026-04-21 04:47 | 22.95668 | 97.51989 | 34850 ft | 552 kts | 82° |
| 2026-04-21 04:47 | 22.96531 | 97.60264 | 34838 ft | 552 kts | 82° |
| 2026-04-21 04:48 | 22.97390 | 97.68529 | 34841 ft | 551 kts | 82° |
| 2026-04-21 04:48 | 22.98664 | 97.76701 | 34848 ft | 548 kts | 73° |
| 2026-04-21 04:49 | 23.01092 | 97.84499 | 34854 ft | 544 kts | 66° |
| 2026-04-21 04:49 | 23.03805 | 97.92169 | 34859 ft | 544 kts | 66° |
| 2026-04-21 04:50 | 23.06480 | 97.99849 | 34858 ft | 544 kts | 66° |
| 2026-04-21 04:50 | 23.09115 | 98.07562 | 34860 ft | 544 kts | 67° |
| 2026-04-21 04:51 | 23.11734 | 98.15272 | 34867 ft | 544 kts | 67° |
| 2026-04-21 04:51 | 23.14354 | 98.22989 | 34868 ft | 544 kts | 67° |
| 2026-04-21 04:52 | 23.16968 | 98.30697 | 34860 ft | 543 kts | 67° |
| 2026-04-21 04:52 | 23.19572 | 98.38382 | 34867 ft | 542 kts | 67° |
| 2026-04-21 04:53 | 23.22174 | 98.46073 | 34867 ft | 542 kts | 67° |
| 2026-04-21 04:53 | 23.24776 | 98.53781 | 34862 ft | 543 kts | 67° |
| 2026-04-21 04:54 | 23.27370 | 98.61486 | 34868 ft | 542 kts | 67° |
| 2026-04-21 04:54 | 23.29961 | 98.69193 | 34877 ft | 543 kts | 67° |
| 2026-04-21 04:55 | 23.32538 | 98.76867 | 34882 ft | 544 kts | 67° |
| 2026-04-21 04:55 | 23.33833 | 98.80735 | 35096 ft | 545 kts | 67° |
| 2026-04-21 04:55 | 23.35129 | 98.84609 | 35494 ft | 543 kts | 67° |
| 2026-04-21 04:55 | 23.36416 | 98.88456 | 35916 ft | 540 kts | 67° |
| 2026-04-21 04:56 | 23.37697 | 98.92289 | 36290 ft | 539 kts | 67° |
| 2026-04-21 04:56 | 23.38941 | 98.96140 | 36635 ft | 537 kts | 68° |
| 2026-04-21 04:56 | 23.40143 | 98.99985 | 36921 ft | 538 kts | 69° |
| 2026-04-21 04:57 | 23.42549 | 99.07784 | 36895 ft | 545 kts | 69° |
| 2026-04-21 04:57 | 23.44951 | 99.15544 | 36891 ft | 537 kts | 68° |
| 2026-04-21 04:58 | 23.47349 | 99.23244 | 36896 ft | 537 kts | 68° |
| 2026-04-21 04:58 | 23.49744 | 99.30939 | 36892 ft | 536 kts | 69° |
| 2026-04-21 04:59 | 23.52151 | 99.38619 | 36895 ft | 534 kts | 66° |
| 2026-04-21 04:59 | 23.55312 | 99.45884 | 36897 ft | 529 kts | 56° |
| 2026-04-21 05:00 | 23.59002 | 99.52810 | 36905 ft | 529 kts | 56° |
| 2026-04-21 05:00 | 23.64518 | 99.63213 | 36882 ft | 532 kts | 56° |
| 2026-04-21 05:01 | 23.68173 | 99.70228 | 36915 ft | 532 kts | 56° |
| 2026-04-21 05:01 | 23.71832 | 99.77277 | 36893 ft | 535 kts | 56° |
| 2026-04-21 05:02 | 23.75494 | 99.84334 | 36894 ft | 534 kts | 56° |
| 2026-04-21 05:02 | 23.79153 | 99.91394 | 36884 ft | 534 kts | 56° |
| 2026-04-21 05:03 | 23.82804 | 99.98445 | 36873 ft | 533 kts | 56° |
| 2026-04-21 05:03 | 23.86442 | 100.05483 | 36845 ft | 531 kts | 56° |
| 2026-04-21 05:04 | 23.90055 | 100.12482 | 36881 ft | 528 kts | 56° |
| 2026-04-21 05:04 | 23.93666 | 100.19483 | 36868 ft | 529 kts | 56° |
| 2026-04-21 05:05 | 23.97272 | 100.26489 | 36869 ft | 528 kts | 56° |
| 2026-04-21 05:05 | 24.00864 | 100.33476 | 36871 ft | 527 kts | 56° |
| 2026-04-21 05:06 | 24.04467 | 100.40493 | 36860 ft | 530 kts | 57° |
| 2026-04-21 05:06 | 24.08077 | 100.47540 | 36853 ft | 532 kts | 57° |
| 2026-04-21 05:07 | 24.11701 | 100.54618 | 36847 ft | 534 kts | 57° |
| 2026-04-21 05:07 | 24.15304 | 100.61735 | 36838 ft | 534 kts | 57° |
| 2026-04-21 05:08 | 24.18877 | 100.68879 | 36831 ft | 535 kts | 57° |
| 2026-04-21 05:08 | 24.22442 | 100.76025 | 36819 ft | 534 kts | 57° |
| 2026-04-21 05:09 | 24.25997 | 100.83142 | 36831 ft | 532 kts | 57° |
| 2026-04-21 05:09 | 24.29518 | 100.90195 | 36835 ft | 530 kts | 57° |
| 2026-04-21 05:10 | 24.33057 | 100.97296 | 36836 ft | 531 kts | 57° |
| 2026-04-21 05:10 | 24.36594 | 101.04404 | 36826 ft | 531 kts | 57° |
| 2026-04-21 05:11 | 24.40133 | 101.11528 | 36827 ft | 532 kts | 57° |
| 2026-04-21 05:11 | 24.43677 | 101.18672 | 36808 ft | 533 kts | 57° |
| 2026-04-21 05:12 | 24.47214 | 101.25817 | 36806 ft | 532 kts | 57° |
| 2026-04-21 05:12 | 24.50752 | 101.32967 | 36890 ft | 533 kts | 57° |
| 2026-04-21 05:13 | 24.54285 | 101.40122 | 36892 ft | 533 kts | 58° |
| 2026-04-21 05:13 | 24.57819 | 101.47292 | 36871 ft | 533 kts | 57° |
| 2026-04-21 05:14 | 24.61335 | 101.54436 | 36898 ft | 531 kts | 57° |
| 2026-04-21 05:14 | 24.64832 | 101.61582 | 36890 ft | 531 kts | 58° |
| 2026-04-21 05:15 | 24.68298 | 101.68752 | 36900 ft | 531 kts | 58° |
| 2026-04-21 05:15 | 24.71765 | 101.75940 | 36898 ft | 533 kts | 58° |
| 2026-04-21 05:16 | 24.75235 | 101.83134 | 36912 ft | 532 kts | 58° |
| 2026-04-21 05:16 | 24.78706 | 101.90338 | 36920 ft | 533 kts | 58° |
| 2026-04-21 05:17 | 24.82176 | 101.97548 | 36917 ft | 533 kts | 57° |
| 2026-04-21 05:17 | 24.85623 | 102.04719 | 36924 ft | 534 kts | 58° |
| 2026-04-21 05:18 | 24.89113 | 102.11997 | 36925 ft | 534 kts | 58° |
| 2026-04-21 05:18 | 24.92552 | 102.19175 | 36933 ft | 533 kts | 58° |
| 2026-04-21 05:19 | 24.96009 | 102.26409 | 36933 ft | 534 kts | 58° |
| 2026-04-21 05:19 | 24.99465 | 102.33651 | 36937 ft | 534 kts | 58° |
| 2026-04-21 05:20 | 25.02924 | 102.40905 | 36943 ft | 535 kts | 58° |
| 2026-04-21 05:20 | 25.06060 | 102.48336 | 36932 ft | 540 kts | 74° |
| 2026-04-21 05:21 | 25.06519 | 102.52445 | 36947 ft | 544 kts | 90° |
| 2026-04-21 05:21 | 25.06085 | 102.56587 | 36961 ft | 545 kts | 105° |
| 2026-04-21 05:21 | 25.04754 | 102.60462 | 36969 ft | 539 kts | 120° |
| 2026-04-21 05:21 | 25.03022 | 102.64139 | 36992 ft | 539 kts | 120° |
| 2026-04-21 05:22 | 24.99564 | 102.71500 | 37015 ft | 543 kts | 119° |
| 2026-04-21 05:22 | 24.96217 | 102.78990 | 37026 ft | 546 kts | 118° |
| 2026-04-21 05:23 | 24.92892 | 102.86521 | 37024 ft | 547 kts | 118° |
| 2026-04-21 05:23 | 24.89566 | 102.94063 | 37000 ft | 547 kts | 117° |
| 2026-04-21 05:24 | 24.86826 | 103.00338 | 36970 ft | 546 kts | 117° |
| 2026-04-21 05:24 | 24.83538 | 103.07867 | 36930 ft | 545 kts | 117° |
| 2026-04-21 05:25 | 24.80251 | 103.15366 | 36892 ft | 543 kts | 117° |
| 2026-04-21 05:25 | 24.76964 | 103.22843 | 36890 ft | 542 kts | 117° |
| 2026-04-21 05:26 | 24.73676 | 103.30307 | 36863 ft | 542 kts | 117° |
| 2026-04-21 05:26 | 24.70390 | 103.37757 | 36861 ft | 541 kts | 117° |
| 2026-04-21 05:27 | 24.67105 | 103.45196 | 36869 ft | 541 kts | 117° |
| 2026-04-21 05:27 | 24.63814 | 103.52634 | 36843 ft | 541 kts | 117° |
| 2026-04-21 05:28 | 24.60519 | 103.60069 | 36821 ft | 541 kts | 117° |
| 2026-04-21 05:28 | 24.57227 | 103.67490 | 36839 ft | 540 kts | 117° |
| 2026-04-21 05:29 | 24.54182 | 103.75029 | 36833 ft | 540 kts | 110° |
| 2026-04-21 05:29 | 24.52225 | 103.82993 | 36832 ft | 541 kts | 103° |
| 2026-04-21 05:30 | 24.50589 | 103.91059 | 36801 ft | 541 kts | 103° |
| 2026-04-21 05:30 | 24.48935 | 103.99054 | 36781 ft | 540 kts | 103° |
| 2026-04-21 05:31 | 24.47224 | 104.07090 | 36792 ft | 541 kts | 103° |
| 2026-04-21 05:31 | 24.45492 | 104.15140 | 36752 ft | 542 kts | 103° |
| 2026-04-21 05:32 | 24.43757 | 104.23191 | 36753 ft | 543 kts | 103° |
| 2026-04-21 05:32 | 24.42017 | 104.31264 | 36754 ft | 544 kts | 103° |
| 2026-04-21 05:33 | 24.40271 | 104.39341 | 36722 ft | 544 kts | 103° |
| 2026-04-21 05:33 | 24.38522 | 104.47413 | 36705 ft | 544 kts | 103° |
| 2026-04-21 05:34 | 24.36767 | 104.55484 | 36721 ft | 543 kts | 103° |
| 2026-04-21 05:34 | 24.35013 | 104.63535 | 36692 ft | 543 kts | 103° |
| 2026-04-21 05:35 | 24.33254 | 104.71581 | 36704 ft | 543 kts | 103° |
| 2026-04-21 05:35 | 24.31491 | 104.79630 | 36703 ft | 542 kts | 103° |
| 2026-04-21 05:36 | 24.29728 | 104.87660 | 36695 ft | 542 kts | 103° |
| 2026-04-21 05:36 | 24.27960 | 104.95688 | 36692 ft | 542 kts | 103° |
| 2026-04-21 05:37 | 24.26187 | 105.03715 | 36688 ft | 541 kts | 103° |
| 2026-04-21 05:37 | 24.24415 | 105.11724 | 36695 ft | 541 kts | 103° |
| 2026-04-21 05:38 | 24.22632 | 105.19751 | 36666 ft | 542 kts | 103° |
| 2026-04-21 05:38 | 24.20801 | 105.27691 | 36689 ft | 541 kts | 105° |
| 2026-04-21 05:39 | 24.18841 | 105.35686 | 36687 ft | 540 kts | 105° |
| 2026-04-21 05:39 | 24.16893 | 105.43630 | 36689 ft | 540 kts | 105° |
| 2026-04-21 05:40 | 24.14964 | 105.51567 | 36689 ft | 539 kts | 105° |
| 2026-04-21 05:40 | 24.13034 | 105.59504 | 36695 ft | 540 kts | 105° |
| 2026-04-21 05:41 | 24.11115 | 105.67376 | 36678 ft | 539 kts | 105° |
| 2026-04-21 05:41 | 24.09270 | 105.75318 | 36703 ft | 538 kts | 102° |
| 2026-04-21 05:42 | 24.07723 | 105.83323 | 36690 ft | 538 kts | 101° |
| 2026-04-21 05:42 | 24.06203 | 105.91330 | 36701 ft | 537 kts | 101° |
| 2026-04-21 05:43 | 24.04632 | 105.99309 | 36710 ft | 537 kts | 102° |
| 2026-04-21 05:43 | 24.03026 | 106.07286 | 36699 ft | 537 kts | 102° |
| 2026-04-21 05:44 | 24.01420 | 106.15251 | 36704 ft | 537 kts | 102° |
| 2026-04-21 05:44 | 23.99804 | 106.23262 | 36723 ft | 544 kts | 102° |
| 2026-04-21 05:45 | 23.98156 | 106.31415 | 36712 ft | 555 kts | 102° |
| 2026-04-21 05:45 | 23.96470 | 106.39727 | 36707 ft | 563 kts | 102° |
| 2026-04-21 05:46 | 23.94767 | 106.48107 | 36718 ft | 566 kts | 102° |
| 2026-04-21 05:46 | 23.93053 | 106.56514 | 36719 ft | 567 kts | 102° |
| 2026-04-21 05:47 | 23.91853 | 106.65009 | 36723 ft | 564 kts | 93° |
| 2026-04-21 05:47 | 23.91342 | 106.73549 | 36716 ft | 563 kts | 92° |
| 2026-04-21 05:48 | 23.90854 | 106.82072 | 36716 ft | 561 kts | 92° |
| 2026-04-21 05:48 | 23.90312 | 106.90551 | 36737 ft | 559 kts | 92° |
| 2026-04-21 05:49 | 23.89740 | 106.99007 | 36728 ft | 558 kts | 92° |
| 2026-04-21 05:49 | 23.89162 | 107.07444 | 36743 ft | 556 kts | 92° |
| 2026-04-21 05:50 | 23.88589 | 107.15819 | 36737 ft | 556 kts | 93° |
| 2026-04-21 05:50 | 23.88007 | 107.24306 | 36755 ft | 557 kts | 93° |
| 2026-04-21 05:51 | 23.87427 | 107.32691 | 36755 ft | 557 kts | 93° |
| 2026-04-21 05:51 | 23.86837 | 107.41138 | 36755 ft | 558 kts | 93° |
| 2026-04-21 05:52 | 23.86241 | 107.49595 | 36764 ft | 559 kts | 93° |
| 2026-04-21 05:52 | 23.85641 | 107.58061 | 36785 ft | 559 kts | 93° |
| 2026-04-21 05:53 | 23.85036 | 107.66516 | 36784 ft | 559 kts | 93° |
| 2026-04-21 05:53 | 23.84428 | 107.74980 | 36785 ft | 559 kts | 93° |
| 2026-04-21 05:54 | 23.83813 | 107.83448 | 36791 ft | 559 kts | 93° |
| 2026-04-21 05:54 | 23.83293 | 107.91922 | 36779 ft | 559 kts | 91° |
| 2026-04-21 05:55 | 23.82904 | 108.00391 | 36790 ft | 558 kts | 91° |
| 2026-04-21 05:55 | 23.82486 | 108.08851 | 36795 ft | 557 kts | 92° |
| 2026-04-21 05:56 | 23.82043 | 108.17292 | 36795 ft | 557 kts | 92° |
| 2026-04-21 05:56 | 23.81575 | 108.25732 | 36805 ft | 556 kts | 92° |
| 2026-04-21 05:57 | 23.81091 | 108.34156 | 36800 ft | 556 kts | 92° |
| 2026-04-21 05:57 | 23.80606 | 108.42576 | 36796 ft | 555 kts | 92° |
| 2026-04-21 05:58 | 23.80121 | 108.50997 | 36792 ft | 555 kts | 92° |
| 2026-04-21 05:58 | 23.79632 | 108.59410 | 36800 ft | 555 kts | 92° |
| 2026-04-21 05:59 | 23.79138 | 108.67817 | 36795 ft | 555 kts | 92° |
| 2026-04-21 06:00 | 23.78388 | 108.80425 | 36787 ft | 554 kts | 92° |
| 2026-04-21 06:00 | 23.77884 | 108.88819 | 36796 ft | 555 kts | 92° |
| 2026-04-21 06:01 | 23.77375 | 108.97228 | 36800 ft | 556 kts | 92° |
| 2026-04-21 06:01 | 23.76859 | 109.05653 | 36808 ft | 556 kts | 92° |
| 2026-04-21 06:02 | 23.76299 | 109.14024 | 36811 ft | 557 kts | 95° |
| 2026-04-21 06:02 | 23.74892 | 109.22353 | 36816 ft | 560 kts | 102° |
| 2026-04-21 06:03 | 23.73129 | 109.30638 | 36805 ft | 560 kts | 102° |
| 2026-04-21 06:03 | 23.71406 | 109.38937 | 36806 ft | 561 kts | 101° |
| 2026-04-21 06:04 | 23.69730 | 109.47242 | 36811 ft | 560 kts | 101° |
| 2026-04-21 06:04 | 23.68053 | 109.55546 | 36812 ft | 560 kts | 101° |
| 2026-04-21 06:05 | 23.66363 | 109.63839 | 36812 ft | 561 kts | 101° |
| 2026-04-21 06:05 | 23.64657 | 109.72136 | 36822 ft | 560 kts | 101° |
| 2026-04-21 06:06 | 23.62945 | 109.80419 | 36826 ft | 560 kts | 101° |
| 2026-04-21 06:06 | 23.61232 | 109.88700 | 36831 ft | 559 kts | 101° |
| 2026-04-21 06:07 | 23.59520 | 109.96962 | 36833 ft | 559 kts | 101° |
| 2026-04-21 06:07 | 23.58091 | 110.03835 | 36836 ft | 559 kts | 101° |
| 2026-04-21 06:08 | 23.56372 | 110.12082 | 36835 ft | 558 kts | 101° |
| 2026-04-21 06:08 | 23.54361 | 110.21709 | 36838 ft | 557 kts | 101° |
| 2026-04-21 06:09 | 23.52636 | 110.29941 | 36831 ft | 557 kts | 101° |
| 2026-04-21 06:09 | 23.50912 | 110.38159 | 36829 ft | 556 kts | 101° |
| 2026-04-21 06:10 | 23.49237 | 110.46375 | 36828 ft | 556 kts | 101° |
| 2026-04-21 06:10 | 23.47577 | 110.54593 | 36829 ft | 555 kts | 101° |
| 2026-04-21 06:11 | 23.46188 | 110.61414 | 36824 ft | 555 kts | 101° |
| 2026-04-21 06:11 | 23.44225 | 110.71000 | 36824 ft | 555 kts | 101° |
| 2026-04-21 06:12 | 23.42810 | 110.77804 | 36829 ft | 555 kts | 102° |
| 2026-04-21 06:12 | 23.41066 | 110.85986 | 36822 ft | 555 kts | 102° |
| 2026-04-21 06:13 | 23.39039 | 110.95492 | 36828 ft | 554 kts | 102° |
| 2026-04-21 06:13 | 23.37583 | 111.02334 | 36826 ft | 554 kts | 102° |
| 2026-04-21 06:14 | 23.35838 | 111.10514 | 36833 ft | 554 kts | 102° |
| 2026-04-21 06:14 | 23.34106 | 111.18689 | 36832 ft | 554 kts | 101° |
| 2026-04-21 06:15 | 23.32454 | 111.26886 | 36824 ft | 555 kts | 101° |
| 2026-04-21 06:15 | 23.30810 | 111.35084 | 36833 ft | 555 kts | 101° |
| 2026-04-21 06:16 | 23.29144 | 111.43277 | 36825 ft | 554 kts | 101° |
| 2026-04-21 06:16 | 23.27482 | 111.51416 | 36820 ft | 555 kts | 101° |
| 2026-04-21 06:17 | 23.25771 | 111.59595 | 36828 ft | 554 kts | 102° |
| 2026-04-21 06:17 | 23.24009 | 111.67756 | 36837 ft | 554 kts | 102° |
| 2026-04-21 06:18 | 23.22256 | 111.75911 | 36831 ft | 554 kts | 102° |
| 2026-04-21 06:18 | 23.20509 | 111.84061 | 36839 ft | 554 kts | 102° |
| 2026-04-21 06:19 | 23.18807 | 111.92218 | 36836 ft | 553 kts | 101° |
| 2026-04-21 06:19 | 23.17125 | 112.00382 | 36836 ft | 554 kts | 101° |
| 2026-04-21 06:20 | 23.15431 | 112.08547 | 36832 ft | 554 kts | 101° |
| 2026-04-21 06:20 | 23.13727 | 112.16706 | 36838 ft | 553 kts | 101° |
| 2026-04-21 06:21 | 23.12019 | 112.24852 | 36835 ft | 553 kts | 101° |
| 2026-04-21 06:21 | 23.10309 | 112.32997 | 36840 ft | 553 kts | 102° |
| 2026-04-21 06:22 | 23.08594 | 112.41150 | 36829 ft | 553 kts | 101° |
| 2026-04-21 06:22 | 23.06986 | 112.49299 | 36840 ft | 551 kts | 97° |
| 2026-04-21 06:23 | 23.06294 | 112.57571 | 36835 ft | 550 kts | 91° |
| 2026-04-21 06:23 | 23.05825 | 112.65855 | 36827 ft | 550 kts | 91° |
| 2026-04-21 06:24 | 23.05307 | 112.74138 | 36835 ft | 550 kts | 92° |
| 2026-04-21 06:24 | 23.04743 | 112.82424 | 36838 ft | 551 kts | 92° |
| 2026-04-21 06:25 | 23.04168 | 112.90720 | 36830 ft | 551 kts | 92° |
| 2026-04-21 06:25 | 23.03594 | 112.99019 | 36837 ft | 551 kts | 92° |
| 2026-04-21 06:26 | 23.03023 | 113.07272 | 36842 ft | 552 kts | 92° |
| 2026-04-21 06:26 | 23.02040 | 113.15501 | 36838 ft | 552 kts | 107° |
| 2026-04-21 06:26 | 23.00575 | 113.19353 | 36853 ft | 553 kts | 118° |
| 2026-04-21 06:27 | 22.98502 | 113.22866 | 36846 ft | 553 kts | 129° |
| 2026-04-21 06:27 | 22.93047 | 113.28656 | 36856 ft | 549 kts | 140° |
| 2026-04-21 06:28 | 22.87383 | 113.34226 | 36852 ft | 551 kts | 139° |
| 2026-04-21 06:28 | 22.81762 | 113.39891 | 36859 ft | 552 kts | 138° |
| 2026-04-21 06:29 | 22.76168 | 113.45616 | 36863 ft | 553 kts | 138° |
| 2026-04-21 06:29 | 22.70577 | 113.51342 | 36873 ft | 554 kts | 138° |
| 2026-04-21 06:30 | 22.64971 | 113.57063 | 36878 ft | 553 kts | 138° |
| 2026-04-21 06:30 | 22.59361 | 113.62775 | 36881 ft | 553 kts | 138° |
| 2026-04-21 06:31 | 22.53760 | 113.68472 | 36885 ft | 553 kts | 138° |
| 2026-04-21 06:31 | 22.48160 | 113.74161 | 36888 ft | 552 kts | 138° |
| 2026-04-21 06:32 | 22.42566 | 113.79839 | 36886 ft | 551 kts | 138° |
| 2026-04-21 06:32 | 22.36981 | 113.85502 | 36884 ft | 550 kts | 138° |
| 2026-04-21 06:33 | 22.31678 | 113.91458 | 36887 ft | 550 kts | 133° |
| 2026-04-21 06:33 | 22.26599 | 113.97569 | 36888 ft | 550 kts | 133° |
| 2026-04-21 06:34 | 22.21471 | 114.03683 | 36886 ft | 550 kts | 131° |
| 2026-04-21 06:34 | 22.16702 | 114.10137 | 36889 ft | 550 kts | 128° |
| 2026-04-21 06:35 | 22.12028 | 114.16660 | 36891 ft | 550 kts | 128° |
| 2026-04-21 06:35 | 22.07334 | 114.23170 | 36891 ft | 550 kts | 129° |
| 2026-04-21 06:36 | 22.02617 | 114.29652 | 36887 ft | 549 kts | 129° |
| 2026-04-21 06:36 | 21.97890 | 114.36123 | 36896 ft | 549 kts | 129° |
| 2026-04-21 06:37 | 21.93161 | 114.42591 | 36892 ft | 549 kts | 129° |
| 2026-04-21 06:37 | 21.88433 | 114.49055 | 36897 ft | 549 kts | 129° |
| 2026-04-21 06:38 | 21.83705 | 114.55513 | 36891 ft | 549 kts | 129° |
| 2026-04-21 06:38 | 21.78976 | 114.61964 | 36892 ft | 549 kts | 129° |
| 2026-04-21 06:39 | 21.74239 | 114.68418 | 36895 ft | 549 kts | 129° |
| 2026-04-21 06:39 | 21.69502 | 114.74864 | 36896 ft | 549 kts | 129° |
| 2026-04-21 06:40 | 21.64761 | 114.81309 | 36900 ft | 549 kts | 129° |
| 2026-04-21 06:40 | 21.60057 | 114.87696 | 36899 ft | 549 kts | 129° |
| 2026-04-21 06:41 | 21.55315 | 114.94125 | 36899 ft | 549 kts | 129° |
| 2026-04-21 06:41 | 21.50575 | 115.00546 | 36898 ft | 548 kts | 129° |
| 2026-04-21 06:42 | 21.45834 | 115.06960 | 36903 ft | 548 kts | 129° |
| 2026-04-21 06:42 | 21.41095 | 115.13365 | 36901 ft | 548 kts | 129° |
| 2026-04-21 06:43 | 21.36357 | 115.19761 | 36903 ft | 548 kts | 129° |
| 2026-04-21 06:43 | 21.31617 | 115.26153 | 36906 ft | 547 kts | 129° |
| 2026-04-21 06:44 | 21.26875 | 115.32541 | 36900 ft | 547 kts | 129° |
| 2026-04-21 06:44 | 21.22582 | 115.39266 | 36903 ft | 547 kts | 120° |
| 2026-04-21 06:45 | 21.18845 | 115.46380 | 36905 ft | 547 kts | 119° |
| 2026-04-21 06:45 | 21.15121 | 115.53491 | 36899 ft | 547 kts | 120° |
| 2026-04-21 06:46 | 21.11349 | 115.60574 | 36904 ft | 547 kts | 120° |
| 2026-04-21 06:46 | 21.07559 | 115.67634 | 36904 ft | 547 kts | 120° |
| 2026-04-21 06:47 | 21.03771 | 115.74684 | 36901 ft | 546 kts | 120° |
| 2026-04-21 06:47 | 20.99982 | 115.81735 | 36903 ft | 546 kts | 120° |
| 2026-04-21 06:48 | 20.96196 | 115.88776 | 36904 ft | 546 kts | 120° |
| 2026-04-21 06:48 | 20.92409 | 115.95810 | 36901 ft | 545 kts | 120° |
| 2026-04-21 06:49 | 20.88621 | 116.02836 | 36901 ft | 545 kts | 120° |
| 2026-04-21 06:49 | 20.84164 | 116.09361 | 36908 ft | 543 kts | 135° |
| 2026-04-21 06:50 | 20.78432 | 116.14560 | 36895 ft | 540 kts | 149° |
| 2026-04-21 06:50 | 20.72055 | 116.18800 | 36903 ft | 540 kts | 150° |
| 2026-04-21 06:51 | 20.65662 | 116.23005 | 36899 ft | 540 kts | 150° |
| 2026-04-21 06:51 | 20.59301 | 116.27271 | 36902 ft | 540 kts | 149° |
| 2026-04-21 06:52 | 20.52952 | 116.31569 | 36902 ft | 540 kts | 149° |
| 2026-04-21 06:52 | 20.46610 | 116.35860 | 36900 ft | 540 kts | 149° |
| 2026-04-21 06:53 | 20.40260 | 116.40145 | 36904 ft | 540 kts | 149° |
| 2026-04-21 06:53 | 20.33908 | 116.44423 | 36899 ft | 540 kts | 150° |
| 2026-04-21 06:54 | 20.27560 | 116.48695 | 36900 ft | 540 kts | 150° |
| 2026-04-21 06:54 | 20.21211 | 116.52965 | 36902 ft | 539 kts | 150° |
| 2026-04-21 06:55 | 20.14911 | 116.57197 | 36902 ft | 539 kts | 150° |
| 2026-04-21 06:55 | 20.08576 | 116.61450 | 36902 ft | 539 kts | 150° |
| 2026-04-21 06:56 | 20.02282 | 116.65776 | 36904 ft | 539 kts | 146° |
| 2026-04-21 06:56 | 19.96582 | 116.70980 | 36891 ft | 542 kts | 135° |
| 2026-04-21 06:57 | 19.91513 | 116.76907 | 36893 ft | 542 kts | 133° |
| 2026-04-21 06:57 | 19.86472 | 116.82867 | 36898 ft | 542 kts | 134° |
| 2026-04-21 06:58 | 19.81401 | 116.88785 | 36901 ft | 542 kts | 134° |
| 2026-04-21 06:58 | 19.76307 | 116.94679 | 36903 ft | 541 kts | 134° |
| 2026-04-21 06:59 | 19.71208 | 117.00567 | 36894 ft | 541 kts | 134° |
| 2026-04-21 06:59 | 19.66941 | 117.05493 | 36900 ft | 541 kts | 134° |
| 2026-04-21 07:00 | 19.61023 | 117.12323 | 36897 ft | 541 kts | 134° |
| 2026-04-21 07:00 | 19.56752 | 117.17249 | 36899 ft | 541 kts | 134° |
| 2026-04-21 07:01 | 19.51662 | 117.23112 | 36891 ft | 541 kts | 134° |
| 2026-04-21 07:01 | 19.44052 | 117.31868 | 36891 ft | 541 kts | 134° |
| 2026-04-21 07:02 | 19.38952 | 117.37729 | 36901 ft | 541 kts | 134° |
| 2026-04-21 07:02 | 19.33856 | 117.43579 | 36907 ft | 540 kts | 134° |
| 2026-04-21 07:03 | 19.28760 | 117.49423 | 36887 ft | 540 kts | 134° |
| 2026-04-21 07:03 | 19.23662 | 117.55265 | 36898 ft | 540 kts | 134° |
| 2026-04-21 07:04 | 19.18568 | 117.61096 | 36893 ft | 539 kts | 134° |
| 2026-04-21 07:04 | 19.13478 | 117.66917 | 36897 ft | 539 kts | 134° |
| 2026-04-21 07:05 | 19.08388 | 117.72733 | 36890 ft | 539 kts | 134° |
| 2026-04-21 07:05 | 19.03299 | 117.78543 | 36895 ft | 538 kts | 134° |
| 2026-04-21 07:06 | 18.98206 | 117.84343 | 36894 ft | 538 kts | 134° |
| 2026-04-21 07:06 | 18.93114 | 117.90131 | 36887 ft | 537 kts | 135° |
| 2026-04-21 07:07 | 18.88028 | 117.95910 | 36886 ft | 537 kts | 135° |
| 2026-04-21 07:07 | 18.82939 | 118.01688 | 36889 ft | 537 kts | 135° |
| 2026-04-21 07:08 | 18.77852 | 118.07460 | 36885 ft | 537 kts | 135° |
| 2026-04-21 07:08 | 18.72766 | 118.13225 | 36895 ft | 537 kts | 135° |
| 2026-04-21 07:09 | 18.67673 | 118.18991 | 36895 ft | 537 kts | 135° |
| 2026-04-21 07:09 | 18.62616 | 118.24712 | 36894 ft | 537 kts | 135° |
| 2026-04-21 07:10 | 18.57522 | 118.30470 | 36886 ft | 537 kts | 134° |
| 2026-04-21 07:10 | 18.52422 | 118.36227 | 36881 ft | 537 kts | 134° |
| 2026-04-21 07:11 | 18.47324 | 118.41978 | 36880 ft | 537 kts | 134° |
| 2026-04-21 07:11 | 18.42224 | 118.47727 | 36890 ft | 537 kts | 134° |
| 2026-04-21 07:12 | 18.37121 | 118.53473 | 36882 ft | 537 kts | 134° |
| 2026-04-21 07:12 | 18.32017 | 118.59214 | 36889 ft | 537 kts | 134° |
| 2026-04-21 07:13 | 18.26908 | 118.64957 | 36888 ft | 537 kts | 134° |
| 2026-04-21 07:13 | 18.21807 | 118.70685 | 36884 ft | 537 kts | 134° |
| 2026-04-21 07:14 | 18.16697 | 118.76418 | 36889 ft | 537 kts | 134° |
| 2026-04-21 07:14 | 18.11591 | 118.82141 | 36887 ft | 536 kts | 134° |
| 2026-04-21 07:15 | 18.06488 | 118.87857 | 36887 ft | 536 kts | 134° |
| 2026-04-21 07:15 | 18.01336 | 118.93444 | 36889 ft | 535 kts | 140° |
| 2026-04-21 07:16 | 17.95411 | 118.98211 | 36885 ft | 532 kts | 149° |
| 2026-04-21 07:16 | 17.89021 | 119.01981 | 36888 ft | 530 kts | 154° |
| 2026-04-21 07:17 | 17.82525 | 119.05657 | 36883 ft | 530 kts | 154° |
| 2026-04-21 07:17 | 17.76044 | 119.09364 | 36882 ft | 531 kts | 153° |
| 2026-04-21 07:18 | 17.69576 | 119.13102 | 36879 ft | 531 kts | 153° |
| 2026-04-21 07:18 | 17.63111 | 119.16845 | 36879 ft | 531 kts | 153° |
| 2026-04-21 07:19 | 17.56643 | 119.20586 | 36878 ft | 531 kts | 153° |
| 2026-04-21 07:19 | 17.50177 | 119.24318 | 36874 ft | 531 kts | 153° |
| 2026-04-21 07:20 | 17.43710 | 119.28047 | 36875 ft | 530 kts | 153° |
| 2026-04-21 07:20 | 17.37248 | 119.31770 | 36873 ft | 530 kts | 153° |
| 2026-04-21 07:21 | 17.30785 | 119.35491 | 36874 ft | 530 kts | 153° |
| 2026-04-21 07:21 | 17.24332 | 119.39204 | 36876 ft | 529 kts | 153° |
| 2026-04-21 07:22 | 17.17875 | 119.42915 | 36872 ft | 529 kts | 153° |
| 2026-04-21 07:22 | 17.11425 | 119.46619 | 36869 ft | 529 kts | 153° |
| 2026-04-21 07:23 | 17.04982 | 119.50316 | 36872 ft | 528 kts | 153° |
| 2026-04-21 07:23 | 16.98540 | 119.54011 | 36866 ft | 528 kts | 153° |
| 2026-04-21 07:24 | 16.92094 | 119.57704 | 36867 ft | 528 kts | 153° |
| 2026-04-21 07:24 | 16.85663 | 119.61386 | 36862 ft | 527 kts | 153° |
| 2026-04-21 07:25 | 16.79231 | 119.65066 | 36868 ft | 527 kts | 153° |
| 2026-04-21 07:25 | 16.72800 | 119.68742 | 36865 ft | 527 kts | 153° |
| 2026-04-21 07:26 | 16.66377 | 119.72410 | 36863 ft | 526 kts | 153° |
| 2026-04-21 07:26 | 16.59996 | 119.76052 | 36863 ft | 526 kts | 153° |
| 2026-04-21 07:27 | 16.53536 | 119.79736 | 36862 ft | 526 kts | 153° |
| 2026-04-21 07:27 | 16.47160 | 119.83370 | 36863 ft | 526 kts | 153° |
| 2026-04-21 07:28 | 16.40746 | 119.87022 | 36864 ft | 525 kts | 153° |
| 2026-04-21 07:28 | 16.34331 | 119.90673 | 36862 ft | 525 kts | 153° |
| 2026-04-21 07:29 | 16.27917 | 119.94319 | 36867 ft | 525 kts | 153° |
| 2026-04-21 07:29 | 16.21507 | 119.97961 | 36858 ft | 525 kts | 153° |
| 2026-04-21 07:30 | 16.15096 | 120.01601 | 36863 ft | 525 kts | 154° |
| 2026-04-21 07:30 | 16.08689 | 120.05236 | 36863 ft | 525 kts | 154° |
| 2026-04-21 07:31 | 16.02279 | 120.08870 | 36858 ft | 525 kts | 154° |
| 2026-04-21 07:31 | 15.95872 | 120.12499 | 36867 ft | 524 kts | 154° |
| 2026-04-21 07:32 | 15.89469 | 120.16124 | 36866 ft | 524 kts | 154° |
| 2026-04-21 07:32 | 15.83066 | 120.19746 | 36863 ft | 523 kts | 154° |
| 2026-04-21 07:33 | 15.76680 | 120.23356 | 36866 ft | 522 kts | 154° |
| 2026-04-21 07:33 | 15.70301 | 120.26961 | 36875 ft | 522 kts | 154° |
| 2026-04-21 07:34 | 15.63930 | 120.30558 | 36877 ft | 521 kts | 154° |
| 2026-04-21 07:34 | 15.57559 | 120.34161 | 36875 ft | 521 kts | 154° |
| 2026-04-21 07:35 | 15.51237 | 120.37734 | 36875 ft | 521 kts | 154° |
| 2026-04-21 07:35 | 15.44879 | 120.41331 | 36880 ft | 520 kts | 154° |
| 2026-04-21 07:36 | 15.38385 | 120.44572 | 36882 ft | 515 kts | 164° |
| 2026-04-21 07:36 | 15.31526 | 120.46663 | 36888 ft | 513 kts | 167° |
| 2026-04-21 07:37 | 15.24640 | 120.48646 | 36888 ft | 514 kts | 166° |
| 2026-04-21 07:37 | 15.17787 | 120.50770 | 36891 ft | 514 kts | 166° |
| 2026-04-21 07:38 | 15.10949 | 120.52953 | 36887 ft | 514 kts | 166° |
| 2026-04-21 07:38 | 15.04107 | 120.55132 | 36887 ft | 514 kts | 166° |
| 2026-04-21 07:39 | 14.97271 | 120.57296 | 36883 ft | 514 kts | 166° |
| 2026-04-21 07:39 | 14.90438 | 120.59456 | 36878 ft | 514 kts | 166° |
| 2026-04-21 07:40 | 14.83608 | 120.61615 | 36868 ft | 513 kts | 166° |
| 2026-04-21 07:40 | 14.76767 | 120.63778 | 36864 ft | 513 kts | 166° |
| 2026-04-21 07:41 | 14.69939 | 120.65935 | 36863 ft | 513 kts | 166° |
| 2026-04-21 07:41 | 14.63134 | 120.68083 | 36861 ft | 513 kts | 165° |
| 2026-04-21 07:42 | 14.56634 | 120.71210 | 36869 ft | 518 kts | 150° |
| 2026-04-21 07:42 | 14.50536 | 120.75091 | 36855 ft | 518 kts | 152° |
| 2026-04-21 07:43 | 14.44335 | 120.78907 | 36861 ft | 519 kts | 152° |
| 2026-04-21 07:43 | 14.38133 | 120.82721 | 36856 ft | 519 kts | 152° |